Observation data for Tahoka on 03/01/2021      Previous  Date  Next       Current Mesonet Observations  Soil Data  Daily Summary Page  Observations in Plain Language
KTAS 010600Z 05021KT 06/M10 A3012 RMK A01 T00641098  RH  030%=      5-min Rain = 0
KTAS 010601Z 04015G20KT 06/M10 A3013 RMK A01 T00641098  RH  030%=      5-min Rain = 0
KTAS 010602Z 05018G23KT 06/M10 A3013 RMK A01 T00641097  RH  030%=      5-min Rain = 0
KTAS 010603Z 05017G22KT 06/M10 A3013 RMK A01 T00641097  RH  031%=      5-min Rain = 0
KTAS 010604Z 05016KT 06/M10 A3013 RMK A01 T00641097  RH  031%=      5-min Rain = 0
KTAS 010605Z 05020KT 06/M10 A3013 RMK A01 T00641097  RH  031%=      5-min Rain = 0
KTAS 010606Z 05020KT 06/M10 A3013 RMK A01 T00641097  RH  031%=      5-min Rain = 0
KTAS 010607Z 05018G23KT 06/M10 A3013 RMK A01 T00641097  RH  031%=      5-min Rain = 0
KTAS 010608Z 05019KT 06/M10 A3013 RMK A01 T00641097  RH  031%=      5-min Rain = 0
KTAS 010609Z 05017G23KT 06/M10 A3013 RMK A01 T00631097  RH  031%=      5-min Rain = 0
KTAS 010610Z 05018KT 06/M10 A3013 RMK A01 T00631097  RH  031%=      5-min Rain = 0
KTAS 010611Z 05018KT 06/M10 A3013 RMK A01 T00631096  RH  031%=      5-min Rain = 0
KTAS 010612Z 06016KT 06/M10 A3013 RMK A01 T00621096  RH  031%=      5-min Rain = 0
KTAS 010613Z 05017KT 06/M10 A3013 RMK A01 T00621096  RH  031%=      5-min Rain = 0
KTAS 010614Z 05015KT 06/M10 A3013 RMK A01 T00611095  RH  032%=      5-min Rain = 0
KTAS 010615Z 05018KT 06/M10 A3013 RMK A01 T00611095  RH  032%=      5-min Rain = 0
KTAS 010616Z 05018KT 06/M10 A3013 RMK A01 T00611095  RH  032%=      5-min Rain = 0
KTAS 010617Z 05017KT 06/M10 A3013 RMK A01 T00611095  RH  032%=      5-min Rain = 0
KTAS 010618Z 05019KT 06/M10 A3013 RMK A01 T00611095  RH  032%=      5-min Rain = 0
KTAS 010619Z 04019KT 06/M10 A3012 RMK A01 T00611095  RH  032%=      5-min Rain = 0
KTAS 010620Z 05017G22KT 06/M10 A3012 RMK A01 T00601095  RH  032%=      5-min Rain = 0
KTAS 010621Z 05018KT 06/M10 A3012 RMK A01 T00601095  RH  032%=      5-min Rain = 0
KTAS 010622Z 05019KT 06/M10 A3011 RMK A01 T00601095  RH  032%=      5-min Rain = 0
KTAS 010623Z 05021KT 06/M10 A3011 RMK A01 T00601095  RH  032%=      5-min Rain = 0
KTAS 010624Z 05017KT 06/M10 A3011 RMK A01 T00591095  RH  032%=      5-min Rain = 0
KTAS 010625Z 05019KT 06/M10 A3011 RMK A01 T00591095  RH  032%=      5-min Rain = 0
KTAS 010626Z 05018G23KT 06/M10 A3012 RMK A01 T00591095  RH  032%=      5-min Rain = 0
KTAS 010627Z 05020G27KT 06/M10 A3012 RMK A01 T00581095  RH  032%=      5-min Rain = 0
KTAS 010628Z 05018KT 06/M10 A3012 RMK A01 T00581095  RH  032%=      5-min Rain = 0
KTAS 010629Z 05018G23KT 06/M10 A3012 RMK A01 T00581095  RH  032%=      5-min Rain = 0
KTAS 010630Z 04020G25KT 06/M10 A3012 RMK A01 T00581095  RH  032%=      5-min Rain = 0
KTAS 010631Z 05020KT 06/M10 A3012 RMK A01 T00581095  RH  032%=      5-min Rain = 0
KTAS 010632Z 05020G25KT 06/M10 A3012 RMK A01 T00581095  RH  032%=      5-min Rain = 0
KTAS 010633Z 04019KT 06/M10 A3012 RMK A01 T00571095  RH  032%=      5-min Rain = 0
KTAS 010634Z 05018G23KT 06/M10 A3012 RMK A01 T00571095  RH  033%=      5-min Rain = 0
KTAS 010635Z 05020G26KT 06/M10 A3012 RMK A01 T00561095  RH  033%=      5-min Rain = 0
KTAS 010636Z 05020G26KT 06/M10 A3011 RMK A01 T00561095  RH  033%=      5-min Rain = 0
KTAS 010637Z 05019KT 06/M10 A3011 RMK A01 T00561095  RH  033%=      5-min Rain = 0
KTAS 010638Z 05021KT 06/M10 A3011 RMK A01 T00561095  RH  033%=      5-min Rain = 0
KTAS 010639Z 04018KT 06/M10 A3012 RMK A01 T00561095  RH  033%=      5-min Rain = 0
KTAS 010640Z 05020G27KT 06/M10 A3012 RMK A01 T00551095  RH  033%=      5-min Rain = 0
KTAS 010641Z 04020KT 06/M10 A3011 RMK A01 T00551095  RH  033%=      5-min Rain = 0
KTAS 010642Z 05018KT 06/M10 A3011 RMK A01 T00551095  RH  033%=      5-min Rain = 0
KTAS 010643Z 04021KT 05/M10 A3011 RMK A01 T00541095  RH  033%=      5-min Rain = 0
KTAS 010644Z 04020KT 05/M10 A3011 RMK A01 T00541095  RH  033%=      5-min Rain = 0
KTAS 010645Z 04019KT 05/M10 A3011 RMK A01 T00541095  RH  033%=      5-min Rain = 0
KTAS 010646Z 05018KT 05/M10 A3011 RMK A01 T00541096  RH  033%=      5-min Rain = 0
KTAS 010647Z 04017G22KT 05/M10 A3011 RMK A01 T00531095  RH  033%=      5-min Rain = 0
KTAS 010648Z 04020G25KT 05/M10 A3011 RMK A01 T00531095  RH  033%=      5-min Rain = 0
KTAS 010649Z 04021G26KT 05/M10 A3011 RMK A01 T00541095  RH  033%=      5-min Rain = 0
KTAS 010650Z 04021KT 05/M10 A3011 RMK A01 T00541096  RH  033%=      5-min Rain = 0
KTAS 010651Z 04021G26KT 05/M10 A3011 RMK A01 T00541096  RH  033%=      5-min Rain = 0
KTAS 010652Z 04021G28KT 05/M10 A3011 RMK A01 T00541095  RH  033%=      5-min Rain = 0
KTAS 010653Z 04022G27KT 05/M10 A3011 RMK A01 T00541096  RH  033%=      5-min Rain = 0
KTAS 010654Z 04021G27KT 05/M10 A3011 RMK A01 T00541096  RH  033%=      5-min Rain = 0
KTAS 010655Z 04020KT 05/M10 A3011 RMK A01 T00541095  RH  033%=      5-min Rain = 0
KTAS 010656Z 04021KT 05/M10 A3011 RMK A01 T00541095  RH  033%=      5-min Rain = 0
KTAS 010657Z 04021KT 05/M10 A3011 RMK A01 T00531095  RH  033%=      5-min Rain = 0
KTAS 010658Z 04016KT 05/M10 A3011 RMK A01 T00531095  RH  033%=      5-min Rain = 0
KTAS 010659Z 04020KT 05/M10 A3011 RMK A01 T00521095  RH  034%=      5-min Rain = 0
KTAS 010700Z 04020KT 05/M10 A3011 RMK A01 T00521095  RH  034%=      5-min Rain = 0
KTAS 010701Z 04025KT 05/M10 A3011 RMK A01 T00521095  RH  034%=      5-min Rain = 0
KTAS 010702Z 04020G25KT 05/M10 A3011 RMK A01 T00531095  RH  034%=      5-min Rain = 0
KTAS 010703Z 04019G24KT 05/M09 A3011 RMK A01 T00521094  RH  034%=      5-min Rain = 0
KTAS 010704Z 04017KT 05/M09 A3011 RMK A01 T00511094  RH  034%=      5-min Rain = 0
KTAS 010705Z 04016KT 05/M09 A3011 RMK A01 T00511094  RH  034%=      5-min Rain = 0
KTAS 010706Z 04019G24KT 05/M09 A3011 RMK A01 T00501094  RH  034%=      5-min Rain = 0
KTAS 010707Z 04018KT 05/M09 A3011 RMK A01 T00511094  RH  034%=      5-min Rain = 0
KTAS 010708Z 04018G23KT 05/M09 A3011 RMK A01 T00511094  RH  034%=      5-min Rain = 0
KTAS 010709Z 04018G23KT 05/M09 A301 RMK A01 T00511094  RH  034%=      5-min Rain = 0
KTAS 010710Z 04019KT 05/M09 A301 RMK A01 T00501094  RH  034%=      5-min Rain = 0
KTAS 010711Z 04015KT 05/M09 A301 RMK A01 T00501094  RH  034%=      5-min Rain = 0
KTAS 010712Z 04019KT 05/M09 A301 RMK A01 T00501094  RH  035%=      5-min Rain = 0
KTAS 010713Z 04018KT 05/M09 A301 RMK A01 T00491094  RH  035%=      5-min Rain = 0
KTAS 010714Z 04016G22KT 05/M09 A3009 RMK A01 T00491094  RH  035%=      5-min Rain = 0
KTAS 010715Z 04017KT 05/M09 A3009 RMK A01 T00491094  RH  035%=      5-min Rain = 0
KTAS 010716Z 04016KT 05/M09 A301 RMK A01 T00481093  RH  035%=      5-min Rain = 0
KTAS 010717Z 04017KT 05/M09 A301 RMK A01 T00481094  RH  035%=      5-min Rain = 0
KTAS 010718Z 04015KT 05/M09 A301 RMK A01 T00481094  RH  035%=      5-min Rain = 0
KTAS 010719Z 04017KT 05/M09 A301 RMK A01 T00481093  RH  035%=      5-min Rain = 0
KTAS 010720Z 04018KT 05/M09 A301 RMK A01 T00481093  RH  035%=      5-min Rain = 0
KTAS 010721Z 04014KT 05/M09 A301 RMK A01 T00481093  RH  035%=      5-min Rain = 0
KTAS 010722Z 04018KT 05/M09 A301 RMK A01 T00481093  RH  035%=      5-min Rain = 0
KTAS 010723Z 04018KT 05/M09 A301 RMK A01 T00481093  RH  035%=      5-min Rain = 0
KTAS 010724Z 04016G21KT 05/M09 A301 RMK A01 T00481093  RH  035%=      5-min Rain = 0
KTAS 010725Z 04017G22KT 05/M09 A301 RMK A01 T00481093  RH  035%=      5-min Rain = 0
KTAS 010726Z 04019KT 05/M09 A301 RMK A01 T00481093  RH  035%=      5-min Rain = 0
KTAS 010727Z 04018G24KT 05/M09 A3011 RMK A01 T00481094  RH  035%=      5-min Rain = 0
KTAS 010728Z 04019KT 05/M09 A3011 RMK A01 T00491093  RH  035%=      5-min Rain = 0
KTAS 010729Z 03018KT 05/M09 A3011 RMK A01 T00491093  RH  035%=      5-min Rain = 0
KTAS 010730Z 04018G23KT 05/M09 A3011 RMK A01 T00491094  RH  035%=      5-min Rain = 0
KTAS 010731Z 03017KT 05/M09 A3011 RMK A01 T00491094  RH  035%=      5-min Rain = 0
KTAS 010732Z 03019G24KT 05/M09 A3011 RMK A01 T00491094  RH  035%=      5-min Rain = 0
KTAS 010733Z 03019KT 05/M09 A3011 RMK A01 T00501094  RH  035%=      5-min Rain = 0
KTAS 010734Z 03017KT 05/M09 A3011 RMK A01 T00501094  RH  035%=      5-min Rain = 0
KTAS 010735Z 03018KT 05/M09 A301 RMK A01 T00491094  RH  035%=      5-min Rain = 0
KTAS 010736Z 03020G25KT 05/M09 A301 RMK A01 T00491094  RH  035%=      5-min Rain = 0
KTAS 010737Z 03021G26KT 05/M09 A301 RMK A01 T00481094  RH  035%=      5-min Rain = 0
KTAS 010738Z 03021KT 05/M09 A301 RMK A01 T00481094  RH  035%=      5-min Rain = 0
KTAS 010739Z 03019KT 05/M09 A301 RMK A01 T00481094  RH  035%=      5-min Rain = 0
KTAS 010740Z 03022KT 05/M09 A301 RMK A01 T00481094  RH  035%=      5-min Rain = 0
KTAS 010741Z 03025KT 05/M09 A301 RMK A01 T00481094  RH  035%=      5-min Rain = 0
KTAS 010742Z 03018KT 05/M09 A301 RMK A01 T00481094  RH  035%=      5-min Rain = 0
KTAS 010743Z 03020KT 05/M09 A301 RMK A01 T00481094  RH  035%=      5-min Rain = 0
KTAS 010744Z 03022KT 05/M10 A301 RMK A01 T00481095  RH  035%=      5-min Rain = 0
KTAS 010745Z 03021KT 05/M09 A301 RMK A01 T00481094  RH  035%=      5-min Rain = 0
KTAS 010746Z 03020G26KT 05/M09 A301 RMK A01 T00481094  RH  035%=      5-min Rain = 0
KTAS 010747Z 03019G24KT 05/M09 A301 RMK A01 T00471094  RH  035%=      5-min Rain = 0
KTAS 010748Z 03021G28KT 05/M09 A3009 RMK A01 T00471094  RH  035%=      5-min Rain = 0
KTAS 010749Z 03022KT 05/M10 A3009 RMK A01 T00471095  RH  035%=      5-min Rain = 0
KTAS 010750Z 03020G25KT 05/M10 A3009 RMK A01 T00471095  RH  035%=      5-min Rain = 0
KTAS 010751Z 03023KT 05/M10 A3009 RMK A01 T00471095  RH  035%=      5-min Rain = 0
KTAS 010752Z 04020G25KT 05/M10 A301 RMK A01 T00471095  RH  035%=      5-min Rain = 0
KTAS 010753Z 03021G26KT 05/M10 A301 RMK A01 T00471095  RH  035%=      5-min Rain = 0
KTAS 010754Z 04020G25KT 05/M10 A301 RMK A01 T00461095  RH  035%=      5-min Rain = 0
KTAS 010755Z 03021G26KT 05/M10 A301 RMK A01 T00461095  RH  035%=      5-min Rain = 0
KTAS 010756Z 03019KT 05/M10 A301 RMK A01 T00461095  RH  035%=      5-min Rain = 0
KTAS 010757Z 03020KT 05/M10 A301 RMK A01 T00451095  RH  035%=      5-min Rain = 0
KTAS 010758Z 03018G23KT 05/M10 A301 RMK A01 T00451095  RH  035%=      5-min Rain = 0
KTAS 010759Z 03020KT 05/M10 A301 RMK A01 T00451095  RH  035%=      5-min Rain = 0
KTAS 010800Z 03019G26KT 05/M10 A301 RMK A01 T00451095  RH  035%=      5-min Rain = 0
KTAS 010801Z 03018KT 04/M10 A301 RMK A01 T00441095  RH  035%=      5-min Rain = 0
KTAS 010802Z 03018G24KT 04/M10 A301 RMK A01 T00441095  RH  036%=      5-min Rain = 0
KTAS 010803Z 03023G28KT 04/M10 A301 RMK A01 T00441096  RH  036%=      5-min Rain = 0
KTAS 010804Z 03018G24KT 04/M10 A301 RMK A01 T00441095  RH  035%=      5-min Rain = 0
KTAS 010805Z 03020G26KT 04/M10 A301 RMK A01 T00441095  RH  035%=      5-min Rain = 0
KTAS 010806Z 04019G26KT 04/M10 A3011 RMK A01 T00441095  RH  036%=      5-min Rain = 0
KTAS 010807Z 04022G27KT 04/M10 A3011 RMK A01 T00441096  RH  035%=      5-min Rain = 0
KTAS 010808Z 04017KT 04/M10 A3011 RMK A01 T00441095  RH  035%=      5-min Rain = 0
KTAS 010809Z 04020G26KT 04/M10 A3011 RMK A01 T00441095  RH  036%=      5-min Rain = 0
KTAS 010810Z 04022G28KT 04/M10 A3011 RMK A01 T00441096  RH  035%=      5-min Rain = 0
KTAS 010811Z 04018G23KT 04/M10 A3012 RMK A01 T00441096  RH  035%=      5-min Rain = 0
KTAS 010812Z 05020KT 04/M10 A3012 RMK A01 T00441095  RH  035%=      5-min Rain = 0
KTAS 010813Z 04018KT 04/M10 A3012 RMK A01 T00441095  RH  035%=      5-min Rain = 0
KTAS 010814Z 04019G24KT 04/M10 A3012 RMK A01 T00441095  RH  036%=      5-min Rain = 0
KTAS 010815Z 04019KT 04/M10 A3012 RMK A01 T00441095  RH  036%=      5-min Rain = 0
KTAS 010816Z 04020KT 04/M10 A3012 RMK A01 T00441095  RH  036%=      5-min Rain = 0
KTAS 010817Z 05022KT 04/M10 A3012 RMK A01 T00441095  RH  036%=      5-min Rain = 0
KTAS 010818Z 04017KT 04/M10 A3012 RMK A01 T00441095  RH  036%=      5-min Rain = 0
KTAS 010819Z 04020G25KT 04/M10 A3012 RMK A01 T00441095  RH  036%=      5-min Rain = 0
KTAS 010820Z 04017KT 04/M10 A3012 RMK A01 T00441095  RH  036%=      5-min Rain = 0
KTAS 010821Z 04020KT 04/M10 A3012 RMK A01 T00441095  RH  036%=      5-min Rain = 0
KTAS 010822Z 04021G28KT 04/M10 A3012 RMK A01 T00441095  RH  036%=      5-min Rain = 0
KTAS 010823Z 03019KT 04/M10 A3012 RMK A01 T00441095  RH  036%=      5-min Rain = 0
KTAS 010824Z 04022KT 04/M10 A3011 RMK A01 T00441095  RH  036%=      5-min Rain = 0
KTAS 010825Z 04017KT 04/M10 A3012 RMK A01 T00431095  RH  036%=      5-min Rain = 0
KTAS 010826Z 04021KT 04/M10 A3011 RMK A01 T00431095  RH  036%=      5-min Rain = 0
KTAS 010827Z 04020G25KT 04/M10 A3012 RMK A01 T00431095  RH  036%=      5-min Rain = 0
KTAS 010828Z 04019KT 04/M10 A3012 RMK A01 T00431095  RH  036%=      5-min Rain = 0
KTAS 010829Z 04020G25KT 04/M10 A3012 RMK A01 T00431095  RH  036%=      5-min Rain = 0
KTAS 010830Z 04018KT 04/M10 A3013 RMK A01 T00431095  RH  036%=      5-min Rain = 0
KTAS 010831Z 04018G23KT 04/M10 A3013 RMK A01 T00431095  RH  036%=      5-min Rain = 0
KTAS 010832Z 04018G24KT 04/M10 A3014 RMK A01 T00431095  RH  036%=      5-min Rain = 0
KTAS 010833Z 04017KT 04/M10 A3014 RMK A01 T00431095  RH  036%=      5-min Rain = 0
KTAS 010834Z 04016KT 04/M09 A3014 RMK A01 T00431094  RH  036%=      5-min Rain = 0
KTAS 010835Z 03017KT 04/M09 A3015 RMK A01 T00431094  RH  036%=      5-min Rain = 0
KTAS 010836Z 04018KT 04/M10 A3015 RMK A01 T00431095  RH  036%=      5-min Rain = 0
KTAS 010837Z 04014KT 04/M10 A3015 RMK A01 T00431095  RH  036%=      5-min Rain = 0
KTAS 010838Z 04013KT 04/M09 A3015 RMK A01 T00421094  RH  036%=      5-min Rain = 0
KTAS 010839Z 04013KT 04/M09 A3016 RMK A01 T00421094  RH  036%=      5-min Rain = 0
KTAS 010840Z 04015KT 04/M09 A3016 RMK A01 T00421094  RH  036%=      5-min Rain = 0
KTAS 010841Z 04015KT 04/M09 A3015 RMK A01 T00421094  RH  036%=      5-min Rain = 0
KTAS 010842Z 04014KT 04/M09 A3016 RMK A01 T00421094  RH  036%=      5-min Rain = 0
KTAS 010843Z 03013KT 04/M09 A3015 RMK A01 T00411094  RH  037%=      5-min Rain = 0
KTAS 010844Z 04019KT 04/M09 A3015 RMK A01 T00411094  RH  037%=      5-min Rain = 0
KTAS 010845Z 04017KT 04/M09 A3014 RMK A01 T00411094  RH  037%=      5-min Rain = 0
KTAS 010846Z 04017KT 04/M09 A3014 RMK A01 T00411094  RH  037%=      5-min Rain = 0
KTAS 010847Z 04017KT 04/M09 A3014 RMK A01 T00411094  RH  037%=      5-min Rain = 0
KTAS 010848Z 04020G26KT 04/M09 A3013 RMK A01 T00401094  RH  037%=      5-min Rain = 0
KTAS 010849Z 04020G26KT 04/M09 A3013 RMK A01 T00411094  RH  037%=      5-min Rain = 0
KTAS 010850Z 04020KT 04/M09 A3013 RMK A01 T00411094  RH  037%=      5-min Rain = 0
KTAS 010851Z 04018KT 04/M09 A3013 RMK A01 T00401094  RH  037%=      5-min Rain = 0
KTAS 010852Z 04020KT 04/M09 A3013 RMK A01 T00401094  RH  037%=      5-min Rain = 0
KTAS 010853Z 04019G24KT 04/M09 A3013 RMK A01 T00411094  RH  037%=      5-min Rain = 0
KTAS 010854Z 04019KT 04/M09 A3014 RMK A01 T00411094  RH  037%=      5-min Rain = 0
KTAS 010855Z 04017KT 04/M09 A3014 RMK A01 T00411094  RH  037%=      5-min Rain = 0
KTAS 010856Z 04016KT 04/M09 A3014 RMK A01 T00401094  RH  037%=      5-min Rain = 0
KTAS 010857Z 04020KT 04/M09 A3014 RMK A01 T00411094  RH  037%=      5-min Rain = 0
KTAS 010858Z 04016KT 04/M09 A3014 RMK A01 T00411094  RH  037%=      5-min Rain = 0
KTAS 010859Z 04020KT 04/M09 A3014 RMK A01 T00401094  RH  037%=      5-min Rain = 0
KTAS 010900Z 04018G23KT 04/M09 A3014 RMK A01 T00411094  RH  037%=      5-min Rain = 0
KTAS 010901Z 03017KT 04/M09 A3014 RMK A01 T00401094  RH  037%=      5-min Rain = 0
KTAS 010902Z 04015KT 04/M09 A3014 RMK A01 T00411093  RH  037%=      5-min Rain = 0
KTAS 010903Z 04018KT 04/M09 A3014 RMK A01 T00401093  RH  037%=      5-min Rain = 0
KTAS 010904Z 04020KT 04/M09 A3014 RMK A01 T00401093  RH  037%=      5-min Rain = 0
KTAS 010905Z 03020KT 04/M09 A3014 RMK A01 T00401093  RH  037%=      5-min Rain = 0
KTAS 010906Z 03019G24KT 04/M09 A3014 RMK A01 T00411093  RH  037%=      5-min Rain = 0
KTAS 010907Z 04019KT 04/M09 A3014 RMK A01 T00401093  RH  037%=      5-min Rain = 0
KTAS 010908Z 04015KT 04/M09 A3015 RMK A01 T00401093  RH  037%=      5-min Rain = 0
KTAS 010909Z 04017G22KT 04/M09 A3015 RMK A01 T00401093  RH  037%=      5-min Rain = 0
KTAS 010910Z 04018KT 04/M09 A3015 RMK A01 T00401093  RH  037%=      5-min Rain = 0
KTAS 010911Z 04017KT 04/M09 A3016 RMK A01 T00401093  RH  037%=      5-min Rain = 0
KTAS 010912Z 04016KT 04/M09 A3016 RMK A01 T00411093  RH  037%=      5-min Rain = 0
KTAS 010913Z 04016KT 04/M09 A3016 RMK A01 T00401093  RH  037%=      5-min Rain = 0
KTAS 010914Z 04017KT 04/M09 A3016 RMK A01 T00411093  RH  037%=      5-min Rain = 0
KTAS 010915Z 04014KT 04/M09 A3016 RMK A01 T00411093  RH  037%=      5-min Rain = 0
KTAS 010916Z 04014KT 04/M09 A3017 RMK A01 T00401092  RH  037%=      5-min Rain = 0
KTAS 010917Z 03017KT 04/M09 A3017 RMK A01 T00401093  RH  037%=      5-min Rain = 0
KTAS 010918Z 04016KT 04/M09 A3017 RMK A01 T00401093  RH  037%=      5-min Rain = 0
KTAS 010919Z 04014KT 04/M09 A3017 RMK A01 T00401093  RH  037%=      5-min Rain = 0
KTAS 010920Z 04015KT 04/M09 A3017 RMK A01 T00401092  RH  037%=      5-min Rain = 0
KTAS 010921Z 04015KT 04/M09 A3016 RMK A01 T00401092  RH  037%=      5-min Rain = 0
KTAS 010922Z 04015KT 04/M09 A3016 RMK A01 T00401093  RH  037%=      5-min Rain = 0
KTAS 010923Z 05017KT 04/M09 A3016 RMK A01 T00391093  RH  037%=      5-min Rain = 0
KTAS 010924Z 05019KT 04/M09 A3016 RMK A01 T00391094  RH  037%=      5-min Rain = 0
KTAS 010925Z 05015KT 04/M09 A3016 RMK A01 T00391094  RH  037%=      5-min Rain = 0
KTAS 010926Z 05018KT 04/M09 A3016 RMK A01 T00391093  RH  037%=      5-min Rain = 0
KTAS 010927Z 05015KT 04/M09 A3016 RMK A01 T00391093  RH  037%=      5-min Rain = 0
KTAS 010928Z 05013KT 04/M09 A3016 RMK A01 T00391093  RH  038%=      5-min Rain = 0
KTAS 010929Z 05018KT 04/M09 A3016 RMK A01 T00391093  RH  038%=      5-min Rain = 0
KTAS 010930Z 05017KT 04/M09 A3016 RMK A01 T00391094  RH  037%=      5-min Rain = 0
KTAS 010931Z 05016KT 04/M09 A3016 RMK A01 T00391094  RH  037%=      5-min Rain = 0
KTAS 010932Z 05015G20KT 04/M09 A3016 RMK A01 T00391094  RH  037%=      5-min Rain = 0
KTAS 010933Z 05017G22KT 04/M09 A3016 RMK A01 T00381094  RH  038%=      5-min Rain = 0
KTAS 010934Z 05017KT 04/M09 A3016 RMK A01 T00381094  RH  038%=      5-min Rain = 0
KTAS 010935Z 05014KT 04/M09 A3016 RMK A01 T00381094  RH  038%=      5-min Rain = 0
KTAS 010936Z 05014KT 04/M09 A3016 RMK A01 T00371093  RH  038%=      5-min Rain = 0
KTAS 010937Z 05016KT 04/M09 A3016 RMK A01 T00371093  RH  038%=      5-min Rain = 0
KTAS 010938Z 04014KT 04/M09 A3017 RMK A01 T00371092  RH  038%=      5-min Rain = 0
KTAS 010939Z 04013KT 04/M09 A3017 RMK A01 T00361093  RH  039%=      5-min Rain = 0
KTAS 010940Z 05013KT 04/M09 A3017 RMK A01 T00351092  RH  039%=      5-min Rain = 0
KTAS 010941Z 05012G18KT 04/M09 A3017 RMK A01 T00351092  RH  039%=      5-min Rain = 0
KTAS 010942Z 05015KT 04/M09 A3017 RMK A01 T00351092  RH  039%=      5-min Rain = 0
KTAS 010943Z 05012KT 04/M09 A3017 RMK A01 T00351091  RH  039%=      5-min Rain = 0
KTAS 010944Z 05011KT 04/M09 A3017 RMK A01 T00351091  RH  039%=      5-min Rain = 0
KTAS 010945Z 04011KT 04/M09 A3017 RMK A01 T00351091  RH  039%=      5-min Rain = 0
KTAS 010946Z 05012KT 04/M09 A3018 RMK A01 T00351091  RH  039%=      5-min Rain = 0
KTAS 010947Z 04011KT 04/M09 A3018 RMK A01 T00351091  RH  039%=      5-min Rain = 0
KTAS 010948Z 04012KT 04/M09 A3018 RMK A01 T00351091  RH  039%=      5-min Rain = 0
KTAS 010949Z 04010KT 04/M09 A3018 RMK A01 T00351091  RH  039%=      5-min Rain = 0
KTAS 010950Z 04010KT 04/M09 A3018 RMK A01 T00351091  RH  039%=      5-min Rain = 0
KTAS 010951Z 05009KT 04/M09 A3018 RMK A01 T00351091  RH  039%=      5-min Rain = 0
KTAS 010952Z 04011KT 04/M09 A3018 RMK A01 T00351091  RH  039%=      5-min Rain = 0
KTAS 010953Z 04012KT 04/M09 A3017 RMK A01 T00351091  RH  039%=      5-min Rain = 0
KTAS 010954Z 04011KT 03/M09 A3017 RMK A01 T00341091  RH  039%=      5-min Rain = 0
KTAS 010955Z 04013KT 03/M09 A3017 RMK A01 T00331091  RH  040%=      5-min Rain = 0
KTAS 010956Z 04012KT 03/M09 A3017 RMK A01 T00331091  RH  040%=      5-min Rain = 0
KTAS 010957Z 04011KT 03/M09 A3016 RMK A01 T00331092  RH  040%=      5-min Rain = 0
KTAS 010958Z 04011KT 03/M09 A3017 RMK A01 T00321092  RH  040%=      5-min Rain = 0
KTAS 010959Z 05012KT 03/M09 A3017 RMK A01 T00321092  RH  040%=      5-min Rain = 0
KTAS 011000Z 05013KT 03/M09 A3017 RMK A01 T00321092  RH  040%=      5-min Rain = 0
KTAS 011001Z 05011KT 03/M09 A3017 RMK A01 T00331092  RH  040%=      5-min Rain = 0
KTAS 011002Z 05012G17KT 03/M09 A3017 RMK A01 T00331092  RH  040%=      5-min Rain = 0
KTAS 011003Z 05011KT 03/M09 A3017 RMK A01 T00341091  RH  039%=      5-min Rain = 0
KTAS 011004Z 05011KT 03/M09 A3017 RMK A01 T00341091  RH  039%=      5-min Rain = 0
KTAS 011005Z 05010KT 03/M09 A3017 RMK A01 T00341091  RH  039%=      5-min Rain = 0
KTAS 011006Z 05012KT 03/M09 A3017 RMK A01 T00341091  RH  039%=      5-min Rain = 0
KTAS 011007Z 05012KT 04/M09 A3017 RMK A01 T00351091  RH  039%=      5-min Rain = 0
KTAS 011008Z 05012KT 04/M09 A3017 RMK A01 T00351091  RH  039%=      5-min Rain = 0
KTAS 011009Z 04011KT 04/M09 A3017 RMK A01 T00351091  RH  039%=      5-min Rain = 0
KTAS 011010Z 04011KT 04/M09 A3017 RMK A01 T00351091  RH  039%=      5-min Rain = 0
KTAS 011011Z 04010KT 04/M09 A3017 RMK A01 T00351090  RH  040%=      5-min Rain = 0
KTAS 011012Z 04010KT 04/M09 A3017 RMK A01 T00351090  RH  040%=      5-min Rain = 0
KTAS 011013Z 04012KT 04/M09 A3017 RMK A01 T00351090  RH  040%=      5-min Rain = 0
KTAS 011014Z 04011KT 04/M09 A3018 RMK A01 T00351090  RH  039%=      5-min Rain = 0
KTAS 011015Z 04010KT 04/M09 A3018 RMK A01 T00351090  RH  039%=      5-min Rain = 0
KTAS 011016Z 04010KT 04/M09 A3018 RMK A01 T00351090  RH  039%=      5-min Rain = 0
KTAS 011017Z 04011KT 04/M09 A3018 RMK A01 T00351090  RH  039%=      5-min Rain = 0
KTAS 011018Z 04012KT 04/M09 A3018 RMK A01 T00351090  RH  039%=      5-min Rain = 0
KTAS 011019Z 04013KT 04/M09 A3018 RMK A01 T00351090  RH  039%=      5-min Rain = 0
KTAS 011020Z 04012KT 04/M09 A3018 RMK A01 T00361090  RH  039%=      5-min Rain = 0
KTAS 011021Z 04012KT 04/M09 A3018 RMK A01 T00361090  RH  039%=      5-min Rain = 0
KTAS 011022Z 04011KT 04/M09 A3018 RMK A01 T00361090  RH  039%=      5-min Rain = 0
KTAS 011023Z 04011KT 04/M09 A3018 RMK A01 T00361090  RH  039%=      5-min Rain = 0
KTAS 011024Z 04010KT 04/M09 A3018 RMK A01 T00351090  RH  039%=      5-min Rain = 0
KTAS 011025Z 04014KT 04/M09 A3018 RMK A01 T00351090  RH  039%=      5-min Rain = 0
KTAS 011026Z 03012KT 04/M09 A3017 RMK A01 T00351090  RH  039%=      5-min Rain = 0
KTAS 011027Z 03013KT 04/M09 A3017 RMK A01 T00351090  RH  040%=      5-min Rain = 0
KTAS 011028Z 03012KT 04/M09 A3017 RMK A01 T00351090  RH  040%=      5-min Rain = 0
KTAS 011029Z 03012KT 04/M09 A3017 RMK A01 T00351090  RH  040%=      5-min Rain = 0
KTAS 011030Z 03015KT 04/M09 A3017 RMK A01 T00351090  RH  040%=      5-min Rain = 0
KTAS 011031Z 03015KT 04/M09 A3017 RMK A01 T00351090  RH  040%=      5-min Rain = 0
KTAS 011032Z 03015KT 04/M09 A3017 RMK A01 T00351090  RH  040%=      5-min Rain = 0
KTAS 011033Z 03013KT 04/M09 A3017 RMK A01 T00351090  RH  040%=      5-min Rain = 0
KTAS 011034Z 04013KT 03/M09 A3017 RMK A01 T00341090  RH  040%=      5-min Rain = 0
KTAS 011035Z 03010KT 03/M09 A3017 RMK A01 T00341090  RH  040%=      5-min Rain = 0
KTAS 011036Z 03012KT 03/M09 A3017 RMK A01 T00341090  RH  040%=      5-min Rain = 0
KTAS 011037Z 03013KT 03/M09 A3017 RMK A01 T00331090  RH  040%=      5-min Rain = 0
KTAS 011038Z 03013KT 03/M09 A3018 RMK A01 T00341090  RH  040%=      5-min Rain = 0
KTAS 011039Z 03012KT 03/M09 A3018 RMK A01 T00341090  RH  040%=      5-min Rain = 0
KTAS 011040Z 03013KT 03/M09 A3018 RMK A01 T00341089  RH  040%=      5-min Rain = 0
KTAS 011041Z 03012KT 03/M09 A3018 RMK A01 T00341090  RH  040%=      5-min Rain = 0
KTAS 011042Z 03011KT 03/M09 A3018 RMK A01 T00341090  RH  040%=      5-min Rain = 0
KTAS 011043Z 03010KT 03/M09 A3018 RMK A01 T00341090  RH  040%=      5-min Rain = 0
KTAS 011044Z 03013KT 03/M09 A3018 RMK A01 T00341090  RH  040%=      5-min Rain = 0
KTAS 011045Z 03013KT 04/M09 A3018 RMK A01 T00351090  RH  040%=      5-min Rain = 0
KTAS 011046Z 04012KT 04/M09 A3018 RMK A01 T00351090  RH  040%=      5-min Rain = 0
KTAS 011047Z 04013KT 04/M09 A3018 RMK A01 T00351090  RH  040%=      5-min Rain = 0
KTAS 011048Z 03013KT 04/M09 A3019 RMK A01 T00351090  RH  040%=      5-min Rain = 0
KTAS 011049Z 03012KT 04/M09 A3019 RMK A01 T00351090  RH  040%=      5-min Rain = 0
KTAS 011050Z 03012KT 04/M09 A3018 RMK A01 T00351090  RH  040%=      5-min Rain = 0
KTAS 011051Z 03011KT 04/M09 A3018 RMK A01 T00351090  RH  040%=      5-min Rain = 0
KTAS 011052Z 03011KT 03/M09 A3018 RMK A01 T00341090  RH  040%=      5-min Rain = 0
KTAS 011053Z 03012KT 03/M09 A3018 RMK A01 T00341089  RH  040%=      5-min Rain = 0
KTAS 011054Z 03012KT 03/M09 A3019 RMK A01 T00331089  RH  040%=      5-min Rain = 0
KTAS 011055Z 04012KT 03/M09 A3019 RMK A01 T00331090  RH  040%=      5-min Rain = 0
KTAS 011056Z 03010KT 03/M09 A3019 RMK A01 T00331090  RH  040%=      5-min Rain = 0
KTAS 011057Z 04012KT 03/M09 A3019 RMK A01 T00331089  RH  040%=      5-min Rain = 0
KTAS 011058Z 04012KT 03/M09 A3019 RMK A01 T00331089  RH  040%=      5-min Rain = 0
KTAS 011059Z 04010KT 03/M09 A302 RMK A01 T00331089  RH  040%=      5-min Rain = 0
KTAS 011100Z 05010KT 03/M09 A302 RMK A01 T00331089  RH  040%=      5-min Rain = 0
KTAS 011101Z 05011KT 03/M09 A302 RMK A01 T00331090  RH  040%=      5-min Rain = 0
KTAS 011102Z 06009KT 03/M09 A302 RMK A01 T00331090  RH  040%=      5-min Rain = 0
KTAS 011103Z 06009KT 03/M09 A3021 RMK A01 T00331090  RH  040%=      5-min Rain = 0
KTAS 011104Z 06010KT 03/M09 A3021 RMK A01 T00331090  RH  040%=      5-min Rain = 0
KTAS 011105Z 07010KT 03/M09 A3021 RMK A01 T00331090  RH  040%=      5-min Rain = 0
KTAS 011106Z 07010KT 03/M09 A3021 RMK A01 T00331090  RH  040%=      5-min Rain = 0
KTAS 011107Z 08009KT 03/M09 A3021 RMK A01 T00331090  RH  040%=      5-min Rain = 0
KTAS 011108Z 07009KT 03/M09 A3021 RMK A01 T00331089  RH  040%=      5-min Rain = 0
KTAS 011109Z 08009KT 03/M09 A3021 RMK A01 T00331089  RH  040%=      5-min Rain = 0
KTAS 011110Z 07010KT 03/M09 A3021 RMK A01 T00331090  RH  040%=      5-min Rain = 0
KTAS 011111Z 07009KT 03/M09 A3021 RMK A01 T00331089  RH  040%=      5-min Rain = 0
KTAS 011112Z 07009KT 03/M09 A3021 RMK A01 T00321090  RH  040%=      5-min Rain = 0
KTAS 011113Z 07009KT 03/M09 A3021 RMK A01 T00321090  RH  040%=      5-min Rain = 0
KTAS 011114Z 07009KT 03/M09 A3021 RMK A01 T00311090  RH  041%=      5-min Rain = 0
KTAS 011115Z 08009KT 03/M09 A3021 RMK A01 T00311090  RH  041%=      5-min Rain = 0
KTAS 011116Z 07008KT 03/M09 A3021 RMK A01 T00301090  RH  041%=      5-min Rain = 0
KTAS 011117Z 07009KT 03/M09 A3021 RMK A01 T00301089  RH  041%=      5-min Rain = 0
KTAS 011118Z 07009KT 03/M09 A3021 RMK A01 T00291090  RH  041%=      5-min Rain = 0
KTAS 011119Z 07008KT 03/M09 A3021 RMK A01 T00291089  RH  041%=      5-min Rain = 0
KTAS 011120Z 06008KT 03/M09 A3021 RMK A01 T00291089  RH  042%=      5-min Rain = 0
KTAS 011121Z 06008KT 03/M09 A3022 RMK A01 T00291089  RH  042%=      5-min Rain = 0
KTAS 011122Z 06008KT 03/M09 A3022 RMK A01 T00291089  RH  042%=      5-min Rain = 0
KTAS 011123Z 06008KT 03/M09 A3022 RMK A01 T00291089  RH  042%=      5-min Rain = 0
KTAS 011124Z 06007KT 03/M09 A3022 RMK A01 T00291089  RH  041%=      5-min Rain = 0
KTAS 011125Z 06007KT 03/M09 A3022 RMK A01 T00301089  RH  041%=      5-min Rain = 0
KTAS 011126Z 06007KT 03/M09 A3022 RMK A01 T00291089  RH  041%=      5-min Rain = 0
KTAS 011127Z 05007KT 03/M09 A3022 RMK A01 T00301089  RH  041%=      5-min Rain = 0
KTAS 011128Z 05008KT 03/M09 A3022 RMK A01 T00301089  RH  041%=      5-min Rain = 0
KTAS 011129Z 05008KT 03/M09 A3022 RMK A01 T00301089  RH  041%=      5-min Rain = 0
KTAS 011130Z 05007KT 03/M09 A3022 RMK A01 T00301089  RH  041%=      5-min Rain = 0
KTAS 011131Z 05007KT 03/M09 A3022 RMK A01 T00301089  RH  041%=      5-min Rain = 0
KTAS 011132Z 05007KT 03/M09 A3022 RMK A01 T00301089  RH  041%=      5-min Rain = 0
KTAS 011133Z 05007KT 03/M09 A3022 RMK A01 T00301089  RH  041%=      5-min Rain = 0
KTAS 011134Z 05006KT 03/M09 A3022 RMK A01 T00291089  RH  042%=      5-min Rain = 0
KTAS 011135Z 05007KT 03/M09 A3022 RMK A01 T00281089  RH  042%=      5-min Rain = 0
KTAS 011136Z 04006KT 03/M09 A3022 RMK A01 T00271089  RH  042%=      5-min Rain = 0
KTAS 011137Z 04006KT 03/M09 A3022 RMK A01 T00271089  RH  042%=      5-min Rain = 0
KTAS 011138Z 03006KT 03/M09 A3022 RMK A01 T00261089  RH  042%=      5-min Rain = 0
KTAS 011139Z 03006KT 03/M09 A3022 RMK A01 T00261089  RH  042%=      5-min Rain = 0
KTAS 011140Z 03006KT 03/M09 A3022 RMK A01 T00251090  RH  042%=      5-min Rain = 0
KTAS 011141Z 03006KT 02/M09 A3022 RMK A01 T00231091  RH  043%=      5-min Rain = 0
KTAS 011142Z 03006KT 02/M09 A3022 RMK A01 T00221091  RH  043%=      5-min Rain = 0
KTAS 011143Z 03007KT 02/M09 A3022 RMK A01 T00211091  RH  043%=      5-min Rain = 0
KTAS 011144Z 03007KT 02/M09 A3022 RMK A01 T00211090  RH  044%=      5-min Rain = 0
KTAS 011145Z 03008KT 02/M09 A3022 RMK A01 T00201091  RH  044%=      5-min Rain = 0
KTAS 011146Z 03007KT 02/M09 A3022 RMK A01 T00201091  RH  044%=      5-min Rain = 0
KTAS 011147Z 03007KT 02/M09 A3022 RMK A01 T00201091  RH  044%=      5-min Rain = 0
KTAS 011148Z 03008KT 02/M09 A3022 RMK A01 T00191091  RH  044%=      5-min Rain = 0
KTAS 011149Z 03008KT 02/M09 A3022 RMK A01 T00191090  RH  044%=      5-min Rain = 0
KTAS 011150Z 03008KT 02/M09 A3022 RMK A01 T00191091  RH  044%=      5-min Rain = 0
KTAS 011151Z 02008KT 02/M09 A3022 RMK A01 T00191090  RH  044%=      5-min Rain = 0
KTAS 011152Z 02007KT 02/M09 A3022 RMK A01 T00191090  RH  044%=      5-min Rain = 0
KTAS 011153Z 02008KT 02/M09 A3022 RMK A01 T00191090  RH  044%=      5-min Rain = 0
KTAS 011154Z 02008KT 02/M09 A3022 RMK A01 T00181091  RH  044%=      5-min Rain = 0
KTAS 011155Z 02009KT 02/M09 A3022 RMK A01 T00181090  RH  044%=      5-min Rain = 0
KTAS 011156Z 02009KT 02/M09 A3022 RMK A01 T00181091  RH  044%=      5-min Rain = 0
KTAS 011157Z 01009KT 02/M09 A3022 RMK A01 T00171091  RH  044%=      5-min Rain = 0
KTAS 011158Z 01009KT 02/M09 A3022 RMK A01 T00171091  RH  045%=      5-min Rain = 0
KTAS 011159Z 01009KT 02/M09 A3022 RMK A01 T00161091  RH  045%=      5-min Rain = 0
KTAS 011200Z 01009KT 02/M09 A3022 RMK A01 T00161091  RH  045%=      5-min Rain = 0
KTAS 011201Z 01009KT 02/M09 A3022 RMK A01 T00151091  RH  045%=      5-min Rain = 0
KTAS 011202Z 02009KT 02/M09 A3022 RMK A01 T00151091  RH  045%=      5-min Rain = 0
KTAS 011203Z 02009KT 02/M09 A3022 RMK A01 T00161089  RH  045%=      5-min Rain = 0
KTAS 011204Z 02009KT 02/M09 A3022 RMK A01 T00181089  RH  045%=      5-min Rain = 0
KTAS 011205Z 03009KT 02/M09 A3022 RMK A01 T00181089  RH  045%=      5-min Rain = 0
KTAS 011206Z 03007KT 02/M09 A3022 RMK A01 T00181089  RH  045%=      5-min Rain = 0
KTAS 011207Z 04007KT 02/M09 A3022 RMK A01 T00181089  RH  045%=      5-min Rain = 0
KTAS 011208Z 04006KT 02/M09 A3023 RMK A01 T00191089  RH  045%=      5-min Rain = 0
KTAS 011209Z 03006KT 02/M09 A3023 RMK A01 T00191089  RH  045%=      5-min Rain = 0
KTAS 011210Z 03006KT 02/M09 A3023 RMK A01 T00191089  RH  045%=      5-min Rain = 0
KTAS 011211Z 03005KT 02/M09 A3023 RMK A01 T00191089  RH  045%=      5-min Rain = 0
KTAS 011212Z 04004KT 02/M09 A3023 RMK A01 T00191089  RH  045%=      5-min Rain = 0
KTAS 011213Z 04004KT 02/M09 A3023 RMK A01 T00191089  RH  044%=      5-min Rain = 0
KTAS 011214Z 04003KT 02/M09 A3024 RMK A01 T00191090  RH  044%=      5-min Rain = 0
KTAS 011215Z 05003KT 02/M09 A3024 RMK A01 T00191090  RH  044%=      5-min Rain = 0
KTAS 011216Z 05003KT 02/M09 A3024 RMK A01 T00191091  RH  044%=      5-min Rain = 0
KTAS 011217Z 06002KT 02/M09 A3024 RMK A01 T00191091  RH  044%=      5-min Rain = 0
KTAS 011218Z 06002KT 02/M09 A3024 RMK A01 T00191091  RH  044%=      5-min Rain = 0
KTAS 011219Z 05002KT 02/M09 A3024 RMK A01 T00191091  RH  044%=      5-min Rain = 0
KTAS 011220Z 06002KT 02/M09 A3024 RMK A01 T00181091  RH  044%=      5-min Rain = 0
KTAS 011221Z 06003KT 02/M09 A3024 RMK A01 T00191091  RH  044%=      5-min Rain = 0
KTAS 011222Z 05003KT 02/M09 A3024 RMK A01 T00191092  RH  044%=      5-min Rain = 0
KTAS 011223Z 05003KT 02/M09 A3024 RMK A01 T00191091  RH  044%=      5-min Rain = 0
KTAS 011224Z 05003KT 02/M09 A3024 RMK A01 T00201091  RH  044%=      5-min Rain = 0
KTAS 011225Z 05004KT 02/M09 A3024 RMK A01 T00191092  RH  044%=      5-min Rain = 0
KTAS 011226Z 06004KT 02/M09 A3024 RMK A01 T00191092  RH  044%=      5-min Rain = 0
KTAS 011227Z 05004KT 02/M09 A3024 RMK A01 T00181092  RH  044%=      5-min Rain = 0
KTAS 011228Z 05005KT 02/M09 A3024 RMK A01 T00171093  RH  044%=      5-min Rain = 0
KTAS 011229Z 05006KT 02/M09 A3024 RMK A01 T00161093  RH  044%=      5-min Rain = 0
KTAS 011230Z 04005KT 02/M09 A3024 RMK A01 T00151092  RH  045%=      5-min Rain = 0
KTAS 011231Z 04005KT 01/M09 A3024 RMK A01 T00141092  RH  045%=      5-min Rain = 0
KTAS 011232Z 04005KT 01/M09 A3024 RMK A01 T00131091  RH  046%=      5-min Rain = 0
KTAS 011233Z 04005KT 01/M09 A3024 RMK A01 T00121091  RH  046%=      5-min Rain = 0
KTAS 011234Z 05006KT 01/M09 A3024 RMK A01 T00121091  RH  046%=      5-min Rain = 0
KTAS 011235Z 04006KT 01/M09 A3024 RMK A01 T00121090  RH  047%=      5-min Rain = 0
KTAS 011236Z 04006KT 01/M09 A3024 RMK A01 T00121089  RH  047%=      5-min Rain = 0
KTAS 011237Z 04006KT 01/M09 A3024 RMK A01 T00131089  RH  047%=      5-min Rain = 0
KTAS 011238Z 04006KT 01/M09 A3024 RMK A01 T00131089  RH  047%=      5-min Rain = 0
KTAS 011239Z 04006KT 01/M09 A3024 RMK A01 T00131089  RH  047%=      5-min Rain = 0
KTAS 011240Z 03006KT 01/M09 A3024 RMK A01 T00141088  RH  047%=      5-min Rain = 0
KTAS 011241Z 03006KT 01/M09 A3024 RMK A01 T00141089  RH  047%=      5-min Rain = 0
KTAS 011242Z 03007KT 01/M09 A3024 RMK A01 T00141089  RH  047%=      5-min Rain = 0
KTAS 011243Z 03007KT 01/M09 A3024 RMK A01 T00141088  RH  047%=      5-min Rain = 0
KTAS 011244Z 03007KT 01/M09 A3024 RMK A01 T00141087  RH  047%=      5-min Rain = 0
KTAS 011245Z 03007KT 01/M09 A3025 RMK A01 T00141087  RH  047%=      5-min Rain = 0
KTAS 011246Z 03006KT 01/M09 A3025 RMK A01 T00141087  RH  047%=      5-min Rain = 0
KTAS 011247Z 03005KT 02/M09 A3025 RMK A01 T00151087  RH  046%=      5-min Rain = 0
KTAS 011248Z 03005KT 02/M09 A3025 RMK A01 T00161087  RH  046%=      5-min Rain = 0
KTAS 011249Z 04005KT 02/M09 A3025 RMK A01 T00161087  RH  046%=      5-min Rain = 0
KTAS 011250Z 04004KT 02/M09 A3025 RMK A01 T00171087  RH  046%=      5-min Rain = 0
KTAS 011251Z 03004KT 02/M09 A3025 RMK A01 T00171087  RH  046%=      5-min Rain = 0
KTAS 011252Z 03004KT 02/M09 A3025 RMK A01 T00171087  RH  046%=      5-min Rain = 0
KTAS 011253Z 03005KT 02/M09 A3025 RMK A01 T00171087  RH  046%=      5-min Rain = 0
KTAS 011254Z 03005KT 02/M09 A3026 RMK A01 T00171087  RH  046%=      5-min Rain = 0
KTAS 011255Z 03005KT 02/M09 A3026 RMK A01 T00171087  RH  046%=      5-min Rain = 0
KTAS 011256Z 03006KT 02/M09 A3026 RMK A01 T00171087  RH  046%=      5-min Rain = 0
KTAS 011257Z 03005KT 02/M09 A3026 RMK A01 T00181087  RH  046%=      5-min Rain = 0
KTAS 011258Z 03005KT 02/M09 A3026 RMK A01 T00181087  RH  046%=      5-min Rain = 0
KTAS 011259Z 03005KT 02/M09 A3026 RMK A01 T00181087  RH  046%=      5-min Rain = 0
KTAS 011300Z 02004KT 02/M09 A3027 RMK A01 T00181088  RH  045%=      5-min Rain = 0
KTAS 011301Z 02004KT 02/M09 A3027 RMK A01 T00191087  RH  045%=      5-min Rain = 0
KTAS 011302Z 02004KT 02/M09 A3027 RMK A01 T00191087  RH  046%=      5-min Rain = 0
KTAS 011303Z 02004KT 02/M09 A3027 RMK A01 T00181087  RH  046%=      5-min Rain = 0
KTAS 011304Z 02003KT 02/M09 A3027 RMK A01 T00181087  RH  046%=      5-min Rain = 0
KTAS 011305Z 03003KT 02/M09 A3027 RMK A01 T00181087  RH  046%=      5-min Rain = 0
KTAS 011306Z 03005KT 02/M09 A3027 RMK A01 T00181087  RH  046%=      5-min Rain = 0
KTAS 011307Z 03006KT 02/M09 A3027 RMK A01 T00181086  RH  046%=      5-min Rain = 0
KTAS 011308Z 03007KT 02/M09 A3027 RMK A01 T00191087  RH  045%=      5-min Rain = 0
KTAS 011309Z 03007KT 02/M09 A3027 RMK A01 T00191086  RH  045%=      5-min Rain = 0
KTAS 011310Z 03007KT 02/M09 A3027 RMK A01 T00191087  RH  045%=      5-min Rain = 0
KTAS 011311Z 02007KT 02/M09 A3027 RMK A01 T00191087  RH  045%=      5-min Rain = 0
KTAS 011312Z 02008KT 02/M09 A3027 RMK A01 T00191086  RH  045%=      5-min Rain = 0
KTAS 011313Z 02009KT 02/M09 A3027 RMK A01 T00191087  RH  045%=      5-min Rain = 0
KTAS 011314Z 02008KT 02/M09 A3027 RMK A01 T00191087  RH  045%=      5-min Rain = 0
KTAS 011315Z 02009KT 02/M09 A3027 RMK A01 T00201087  RH  045%=      5-min Rain = 0
KTAS 011316Z 01009KT 02/M09 A3027 RMK A01 T00201087  RH  045%=      5-min Rain = 0
KTAS 011317Z 01008KT 02/M09 A3027 RMK A01 T00201087  RH  045%=      5-min Rain = 0
KTAS 011318Z 02009KT 02/M09 A3027 RMK A01 T00201087  RH  045%=      5-min Rain = 0
KTAS 011319Z 01009KT 02/M09 A3027 RMK A01 T00201087  RH  045%=      5-min Rain = 0
KTAS 011320Z 01008KT 02/M09 A3027 RMK A01 T00201087  RH  045%=      5-min Rain = 0
KTAS 011321Z 01009KT 02/M09 A3027 RMK A01 T00211086  RH  045%=      5-min Rain = 0
KTAS 011322Z 01009KT 02/M09 A3027 RMK A01 T00211086  RH  045%=      5-min Rain = 0
KTAS 011323Z 01009KT 02/M09 A3027 RMK A01 T00211087  RH  045%=      5-min Rain = 0
KTAS 011324Z 01010KT 02/M09 A3027 RMK A01 T00211086  RH  045%=      5-min Rain = 0
KTAS 011325Z 01010KT 02/M09 A3027 RMK A01 T00221086  RH  045%=      5-min Rain = 0
KTAS 011326Z 01011KT 02/M09 A3027 RMK A01 T00221087  RH  044%=      5-min Rain = 0
KTAS 011327Z 01012KT 02/M09 A3026 RMK A01 T00231087  RH  044%=      5-min Rain = 0
KTAS 011328Z 01011KT 02/M09 A3026 RMK A01 T00231088  RH  044%=      5-min Rain = 0
KTAS 011329Z 02012KT 02/M09 A3026 RMK A01 T00231087  RH  044%=      5-min Rain = 0
KTAS 011330Z 02011KT 02/M09 A3027 RMK A01 T00241087  RH  044%=      5-min Rain = 0
KTAS 011331Z 02010KT 02/M09 A3027 RMK A01 T00241087  RH  044%=      5-min Rain = 0
KTAS 011332Z 02008KT 02/M09 A3027 RMK A01 T00241087  RH  044%=      5-min Rain = 0
KTAS 011333Z 01008KT 02/M09 A3027 RMK A01 T00241086  RH  044%=      5-min Rain = 0
KTAS 011334Z 02009KT 02/M09 A3027 RMK A01 T00241085  RH  044%=      5-min Rain = 0
KTAS 011335Z 02008KT 02/M09 A3027 RMK A01 T00241085  RH  045%=      5-min Rain = 0
KTAS 011336Z 02011KT 02/M09 A3027 RMK A01 T00231085  RH  045%=      5-min Rain = 0
KTAS 011337Z 02014KT 02/M09 A3027 RMK A01 T00241086  RH  044%=      5-min Rain = 0
KTAS 011338Z 02014KT 02/M09 A3027 RMK A01 T00241086  RH  044%=      5-min Rain = 0
KTAS 011339Z 02011KT 03/M09 A3027 RMK A01 T00251086  RH  044%=      5-min Rain = 0
KTAS 011340Z 02011KT 03/M09 A3027 RMK A01 T00251086  RH  044%=      5-min Rain = 0
KTAS 011341Z 02012KT 03/M09 A3027 RMK A01 T00251087  RH  044%=      5-min Rain = 0
KTAS 011342Z 02012KT 03/M09 A3027 RMK A01 T00251087  RH  044%=      5-min Rain = 0
KTAS 011343Z 03011KT 03/M09 A3027 RMK A01 T00251087  RH  044%=      5-min Rain = 0
KTAS 011344Z 03011KT 03/M09 A3027 RMK A01 T00251086  RH  044%=      5-min Rain = 0
KTAS 011345Z 03013KT 03/M09 A3027 RMK A01 T00251087  RH  044%=      5-min Rain = 0
KTAS 011346Z 03012KT 03/M09 A3027 RMK A01 T00251087  RH  043%=      5-min Rain = 0
KTAS 011347Z 03011KT 03/M09 A3028 RMK A01 T00251087  RH  043%=      5-min Rain = 0
KTAS 011348Z 03012KT 03/M09 A3028 RMK A01 T00251087  RH  043%=      5-min Rain = 0
KTAS 011349Z 03010KT 03/M09 A3028 RMK A01 T00251087  RH  043%=      5-min Rain = 0
KTAS 011350Z 03011KT 03/M09 A3027 RMK A01 T00251087  RH  043%=      5-min Rain = 0
KTAS 011351Z 02012KT 03/M09 A3027 RMK A01 T00251087  RH  043%=      5-min Rain = 0
KTAS 011352Z 02012KT 03/M09 A3027 RMK A01 T00251087  RH  043%=      5-min Rain = 0
KTAS 011353Z 02010KT 03/M09 A3027 RMK A01 T00251087  RH  043%=      5-min Rain = 0
KTAS 011354Z 03011KT 03/M09 A3027 RMK A01 T00251087  RH  043%=      5-min Rain = 0
KTAS 011355Z 03010KT 03/M09 A3027 RMK A01 T00251087  RH  043%=      5-min Rain = 0
KTAS 011356Z 03012KT 03/M09 A3027 RMK A01 T00261088  RH  043%=      5-min Rain = 0
KTAS 011357Z 03011KT 03/M09 A3027 RMK A01 T00261088  RH  043%=      5-min Rain = 0
KTAS 011358Z 03010KT 03/M09 A3027 RMK A01 T00261087  RH  043%=      5-min Rain = 0
KTAS 011359Z 03014KT 03/M09 A3027 RMK A01 T00261088  RH  043%=      5-min Rain = 0
KTAS 011400Z 04013KT 03/M09 A3027 RMK A01 T00261088  RH  043%=      5-min Rain = 0
KTAS 011401Z 04011KT 03/M09 A3027 RMK A01 T00261088  RH  043%=      5-min Rain = 0
KTAS 011402Z 04011KT 03/M09 A3027 RMK A01 T00261087  RH  043%=      5-min Rain = 0
KTAS 011403Z 04011KT 03/M09 A3027 RMK A01 T00271087  RH  043%=      5-min Rain = 0
KTAS 011404Z 04011KT 03/M09 A3027 RMK A01 T00271086  RH  043%=      5-min Rain = 0
KTAS 011405Z 04012KT 03/M09 A3027 RMK A01 T00271086  RH  043%=      5-min Rain = 0
KTAS 011406Z 04012KT 03/M09 A3027 RMK A01 T00271087  RH  043%=      5-min Rain = 0
KTAS 011407Z 04010KT 03/M09 A3028 RMK A01 T00281087  RH  043%=      5-min Rain = 0
KTAS 011408Z 04011KT 03/M09 A3028 RMK A01 T00281086  RH  043%=      5-min Rain = 0
KTAS 011409Z 05012KT 03/M09 A3028 RMK A01 T00281087  RH  042%=      5-min Rain = 0
KTAS 011410Z 05011KT 03/M09 A3028 RMK A01 T00281086  RH  043%=      5-min Rain = 0
KTAS 011411Z 05010KT 03/M09 A3028 RMK A01 T00291085  RH  043%=      5-min Rain = 0
KTAS 011412Z 04010KT 03/M09 A3028 RMK A01 T00291085  RH  043%=      5-min Rain = 0
KTAS 011413Z 05011KT 03/M09 A3028 RMK A01 T00301085  RH  043%=      5-min Rain = 0
KTAS 011414Z 05012KT 03/M09 A3028 RMK A01 T00301085  RH  042%=      5-min Rain = 0
KTAS 011415Z 04012KT 03/M09 A3028 RMK A01 T00301086  RH  042%=      5-min Rain = 0
KTAS 011416Z 05009KT 03/M09 A3029 RMK A01 T00301085  RH  042%=      5-min Rain = 0
KTAS 011417Z 05009KT 03/M09 A3029 RMK A01 T00311085  RH  042%=      5-min Rain = 0
KTAS 011418Z 05009KT 03/M09 A3029 RMK A01 T00311085  RH  042%=      5-min Rain = 0
KTAS 011419Z 04010KT 03/M09 A3029 RMK A01 T00311085  RH  042%=      5-min Rain = 0
KTAS 011420Z 05011KT 03/M09 A3029 RMK A01 T00301086  RH  042%=      5-min Rain = 0
KTAS 011421Z 06009KT 03/M09 A3029 RMK A01 T00291086  RH  042%=      5-min Rain = 0
KTAS 011422Z 06009KT 03/M09 A3029 RMK A01 T00301085  RH  043%=      5-min Rain = 0
KTAS 011423Z 06009KT 03/M09 A3029 RMK A01 T00301085  RH  043%=      5-min Rain = 0
KTAS 011424Z 06010KT 03/M09 A3029 RMK A01 T00311085  RH  042%=      5-min Rain = 0
KTAS 011425Z 06009KT 03/M09 A303 RMK A01 T00301085  RH  042%=      5-min Rain = 0
KTAS 011426Z 06009KT 03/M08 A303 RMK A01 T00311084  RH  043%=      5-min Rain = 0
KTAS 011427Z 06010KT 03/M09 A303 RMK A01 T00311085  RH  042%=      5-min Rain = 0
KTAS 011428Z 06011KT 03/M09 A303 RMK A01 T00311085  RH  042%=      5-min Rain = 0
KTAS 011429Z 07010KT 03/M09 A303 RMK A01 T00311086  RH  042%=      5-min Rain = 0
KTAS 011430Z 07010KT 03/M09 A303 RMK A01 T00311086  RH  042%=      5-min Rain = 0
KTAS 011431Z 08010KT 03/M09 A303 RMK A01 T00311086  RH  042%=      5-min Rain = 0
KTAS 011432Z 07011KT 03/M09 A303 RMK A01 T00311087  RH  042%=      5-min Rain = 0
KTAS 011433Z 06009KT 03/M09 A3031 RMK A01 T00311087  RH  042%=      5-min Rain = 0
KTAS 011434Z 07009KT 03/M09 A3031 RMK A01 T00311087  RH  042%=      5-min Rain = 0
KTAS 011435Z 06009KT 03/M09 A3031 RMK A01 T00311087  RH  041%=      5-min Rain = 0
KTAS 011436Z 06011KT 03/M09 A3031 RMK A01 T00311088  RH  041%=      5-min Rain = 0
KTAS 011437Z 06010KT 03/M09 A3031 RMK A01 T00311089  RH  041%=      5-min Rain = 0
KTAS 011438Z 07010KT 03/M09 A3031 RMK A01 T00311089  RH  041%=      5-min Rain = 0
KTAS 011439Z 06011KT 03/M09 A3032 RMK A01 T00311088  RH  041%=      5-min Rain = 0
KTAS 011440Z 05010KT 03/M09 A3032 RMK A01 T00311089  RH  041%=      5-min Rain = 0
KTAS 011441Z 05009KT 03/M09 A3032 RMK A01 T00311089  RH  041%=      5-min Rain = 0
KTAS 011442Z 05009KT 03/M09 A3032 RMK A01 T00311088  RH  041%=      5-min Rain = 0
KTAS 011443Z 04009KT 03/M09 A3032 RMK A01 T00311088  RH  041%=      5-min Rain = 0
KTAS 011444Z 05009KT 03/M09 A3032 RMK A01 T00311088  RH  041%=      5-min Rain = 0
KTAS 011445Z 05007KT 03/M09 A3032 RMK A01 T00311087  RH  041%=      5-min Rain = 0
KTAS 011446Z 05007KT 03/M09 A3032 RMK A01 T00311087  RH  042%=      5-min Rain = 0
KTAS 011447Z 05006KT 03/M09 A3032 RMK A01 T00321086  RH  042%=      5-min Rain = 0
KTAS 011448Z 05009KT 03/M09 A3033 RMK A01 T00321086  RH  042%=      5-min Rain = 0
KTAS 011449Z 06007KT 03/M09 A3033 RMK A01 T00321086  RH  042%=      5-min Rain = 0
KTAS 011450Z 06008KT 03/M09 A3033 RMK A01 T00321085  RH  042%=      5-min Rain = 0
KTAS 011451Z 07007KT 03/M09 A3033 RMK A01 T00331085  RH  042%=      5-min Rain = 0
KTAS 011452Z 08009KT 03/M09 A3033 RMK A01 T00331086  RH  041%=      5-min Rain = 0
KTAS 011453Z 07010KT 03/M09 A3033 RMK A01 T00331087  RH  041%=      5-min Rain = 0
KTAS 011454Z 07010KT 03/M09 A3033 RMK A01 T00331087  RH  041%=      5-min Rain = 0
KTAS 011455Z 06010KT 03/M09 A3033 RMK A01 T00331088  RH  041%=      5-min Rain = 0
KTAS 011456Z 07008KT 03/M09 A3033 RMK A01 T00331088  RH  041%=      5-min Rain = 0
KTAS 011457Z 07010KT 03/M09 A3033 RMK A01 T00341087  RH  041%=      5-min Rain = 0
KTAS 011458Z 06011KT 03/M09 A3033 RMK A01 T00341089  RH  040%=      5-min Rain = 0
KTAS 011459Z 06010KT 03/M09 A3033 RMK A01 T00331090  RH  040%=      5-min Rain = 0
KTAS 011500Z 06011KT 03/M09 A3033 RMK A01 T00331089  RH  040%=      5-min Rain = 0
KTAS 011501Z 06011KT 03/M09 A3033 RMK A01 T00331090  RH  040%=      5-min Rain = 0
KTAS 011502Z 06011KT 03/M09 A3033 RMK A01 T00331089  RH  040%=      5-min Rain = 0
KTAS 011503Z 07010KT 03/M09 A3033 RMK A01 T00331088  RH  041%=      5-min Rain = 0
KTAS 011504Z 07010KT 03/M09 A3033 RMK A01 T00331088  RH  041%=      5-min Rain = 0
KTAS 011505Z 06011KT 03/M09 A3033 RMK A01 T00341088  RH  041%=      5-min Rain = 0
KTAS 011506Z 06013KT 03/M09 A3033 RMK A01 T00341088  RH  040%=      5-min Rain = 0
KTAS 011507Z 07011KT 03/M09 A3033 RMK A01 T00331089  RH  040%=      5-min Rain = 0
KTAS 011508Z 07011KT 03/M09 A3033 RMK A01 T00331088  RH  041%=      5-min Rain = 0
KTAS 011509Z 06010KT 03/M09 A3033 RMK A01 T00331087  RH  041%=      5-min Rain = 0
KTAS 011510Z 06010KT 03/M09 A3033 RMK A01 T00331087  RH  041%=      5-min Rain = 0
KTAS 011511Z 06011KT 03/M09 A3033 RMK A01 T00331088  RH  041%=      5-min Rain = 0
KTAS 011512Z 07010KT 03/M09 A3033 RMK A01 T00331088  RH  041%=      5-min Rain = 0
KTAS 011513Z 07010KT 03/M09 A3033 RMK A01 T00321087  RH  041%=      5-min Rain = 0
KTAS 011514Z 07007KT 03/M09 A3034 RMK A01 T00321087  RH  041%=      5-min Rain = 0
KTAS 011515Z 07009KT 03/M09 A3034 RMK A01 T00331087  RH  041%=      5-min Rain = 0
KTAS 011516Z 07007KT 03/M09 A3034 RMK A01 T00331087  RH  041%=      5-min Rain = 0
KTAS 011517Z 07007KT 03/M09 A3035 RMK A01 T00331086  RH  041%=      5-min Rain = 0
KTAS 011518Z 07008KT 03/M09 A3035 RMK A01 T00331086  RH  041%=      5-min Rain = 0
KTAS 011519Z 07005KT 03/M09 A3035 RMK A01 T00331086  RH  041%=      5-min Rain = 0
KTAS 011520Z 06005KT 03/M09 A3035 RMK A01 T00331086  RH  041%=      5-min Rain = 0
KTAS 011521Z 06005KT 03/M09 A3035 RMK A01 T00331087  RH  041%=      5-min Rain = 0
KTAS 011522Z 06007KT 03/M09 A3035 RMK A01 T00331086  RH  041%=      5-min Rain = 0
KTAS 011523Z 06008KT 03/M09 A3035 RMK A01 T00331086  RH  041%=      5-min Rain = 0
KTAS 011524Z 05007KT 03/M09 A3035 RMK A01 T00321087  RH  041%=      5-min Rain = 0
KTAS 011525Z 04007KT 03/M09 A3035 RMK A01 T00311086  RH  042%=      5-min Rain = 0
KTAS 011526Z 03011KT 03/M09 A3035 RMK A01 T00321087  RH  041%=      5-min Rain = 0
KTAS 011527Z 04012KT 03/M09 A3034 RMK A01 T00321089  RH  041%=      5-min Rain = 0
KTAS 011528Z 04010KT 03/M09 A3034 RMK A01 T00321089  RH  041%=      5-min Rain = 0
KTAS 011529Z 04010KT 03/M09 A3034 RMK A01 T00321089  RH  041%=      5-min Rain = 0
KTAS 011530Z 03012KT 03/M09 A3034 RMK A01 T00321090  RH  040%=      5-min Rain = 0
KTAS 011531Z 04011KT 03/M09 A3034 RMK A01 T00321090  RH  040%=      5-min Rain = 0
KTAS 011532Z 04010KT 03/M09 A3034 RMK A01 T00321090  RH  040%=      5-min Rain = 0
KTAS 011533Z 04010KT 03/M09 A3035 RMK A01 T00321089  RH  041%=      5-min Rain = 0
KTAS 011534Z 05009KT 03/M09 A3035 RMK A01 T00321090  RH  041%=      5-min Rain = 0
KTAS 011535Z 05008KT 03/M09 A3035 RMK A01 T00321089  RH  041%=      5-min Rain = 0
KTAS 011536Z 04008KT 03/M09 A3035 RMK A01 T00321089  RH  041%=      5-min Rain = 0
KTAS 011537Z 04008KT 03/M09 A3035 RMK A01 T00321088  RH  041%=      5-min Rain = 0
KTAS 011538Z 04010KT 03/M09 A3035 RMK A01 T00321088  RH  041%=      5-min Rain = 0
KTAS 011539Z 04010KT 03/M09 A3035 RMK A01 T00321088  RH  041%=      5-min Rain = 0
KTAS 011540Z 04010KT 03/M09 A3035 RMK A01 T00321088  RH  041%=      5-min Rain = 0
KTAS 011541Z 04008KT 03/M09 A3036 RMK A01 T00321088  RH  041%=      5-min Rain = 0
KTAS 011542Z 03008KT 03/M09 A3036 RMK A01 T00321088  RH  041%=      5-min Rain = 0
KTAS 011543Z 04008KT 03/M09 A3036 RMK A01 T00321088  RH  041%=      5-min Rain = 0
KTAS 011544Z 04007KT 03/M09 A3036 RMK A01 T00321088  RH  041%=      5-min Rain = 0
KTAS 011545Z 05008KT 03/M09 A3036 RMK A01 T00331087  RH  041%=      5-min Rain = 0
KTAS 011546Z 04009KT 03/M09 A3036 RMK A01 T00331087  RH  041%=      5-min Rain = 0
KTAS 011547Z 04009KT 03/M09 A3036 RMK A01 T00321088  RH  041%=      5-min Rain = 0
KTAS 011548Z 04008KT 03/M09 A3036 RMK A01 T00321087  RH  041%=      5-min Rain = 0
KTAS 011549Z 04011KT 03/M09 A3036 RMK A01 T00331087  RH  041%=      5-min Rain = 0
KTAS 011550Z 03011KT 03/M09 A3036 RMK A01 T00321089  RH  041%=      5-min Rain = 0
KTAS 011551Z 03010KT 03/M09 A3036 RMK A01 T00321088  RH  041%=      5-min Rain = 0
KTAS 011552Z 03011KT 03/M09 A3036 RMK A01 T00321088  RH  041%=      5-min Rain = 0
KTAS 011553Z 04011KT 03/M09 A3036 RMK A01 T00321088  RH  041%=      5-min Rain = 0
KTAS 011554Z 04012KT 03/M09 A3035 RMK A01 T00311089  RH  041%=      5-min Rain = 0
KTAS 011555Z 04011KT 03/M09 A3035 RMK A01 T00311089  RH  041%=      5-min Rain = 0
KTAS 011556Z 04010KT 03/M09 A3035 RMK A01 T00311088  RH  041%=      5-min Rain = 0
KTAS 011557Z 05008KT 03/M09 A3035 RMK A01 T00311087  RH  042%=      5-min Rain = 0
KTAS 011558Z 05010KT 03/M09 A3035 RMK A01 T00311087  RH  042%=      5-min Rain = 0
KTAS 011559Z 05008KT 03/M09 A3036 RMK A01 T00311087  RH  041%=      5-min Rain = 0
KTAS 011600Z 04009KT 03/M09 A3036 RMK A01 T00311086  RH  042%=      5-min Rain = 0
KTAS 011601Z 04009KT 03/M09 A3036 RMK A01 T00311087  RH  041%=      5-min Rain = 0
KTAS 011602Z 04008KT 03/M09 A3036 RMK A01 T00311087  RH  042%=      5-min Rain = 0
KTAS 011603Z 04009KT 03/M09 A3036 RMK A01 T00311087  RH  042%=      5-min Rain = 0
KTAS 011604Z 04008KT 03/M09 A3036 RMK A01 T00321086  RH  042%=      5-min Rain = 0
KTAS 011605Z 05008KT 03/M09 A3036 RMK A01 T00321086  RH  042%=      5-min Rain = 0
KTAS 011606Z 05008KT 03/M09 A3036 RMK A01 T00321085  RH  042%=      5-min Rain = 0
KTAS 011607Z 05010KT 03/M09 A3035 RMK A01 T00321087  RH  041%=      5-min Rain = 0
KTAS 011608Z 05011KT 03/M09 A3035 RMK A01 T00321087  RH  041%=      5-min Rain = 0
KTAS 011609Z 05010KT 03/M09 A3035 RMK A01 T00311087  RH  041%=      5-min Rain = 0
KTAS 011610Z 05009KT 03/M09 A3035 RMK A01 T00321086  RH  042%=      5-min Rain = 0
KTAS 011611Z 05008KT 03/M09 A3035 RMK A01 T00321086  RH  042%=      5-min Rain = 0
KTAS 011612Z 05009KT 03/M09 A3035 RMK A01 T00321086  RH  042%=      5-min Rain = 0
KTAS 011613Z 04008KT 03/M09 A3035 RMK A01 T00321086  RH  042%=      5-min Rain = 0
KTAS 011614Z 04007KT 03/M09 A3036 RMK A01 T00321086  RH  042%=      5-min Rain = 0
KTAS 011615Z 04006KT 03/M09 A3036 RMK A01 T00321086  RH  042%=      5-min Rain = 0
KTAS 011616Z 06007KT 03/M09 A3036 RMK A01 T00331085  RH  042%=      5-min Rain = 0
KTAS 011617Z 05007KT 03/M09 A3036 RMK A01 T00331086  RH  041%=      5-min Rain = 0
KTAS 011618Z 06006KT 03/M09 A3036 RMK A01 T00331086  RH  041%=      5-min Rain = 0
KTAS 011619Z 07007KT 03/M09 A3036 RMK A01 T00341085  RH  041%=      5-min Rain = 0
KTAS 011620Z 06006KT 03/M09 A3036 RMK A01 T00331086  RH  041%=      5-min Rain = 0
KTAS 011621Z 07005KT 03/M09 A3037 RMK A01 T00331086  RH  041%=      5-min Rain = 0
KTAS 011622Z 07007KT 03/M09 A3037 RMK A01 T00341085  RH  042%=      5-min Rain = 0
KTAS 011623Z 06007KT 03/M09 A3037 RMK A01 T00341085  RH  042%=      5-min Rain = 0
KTAS 011624Z 06007KT 03/M09 A3036 RMK A01 T00341085  RH  041%=      5-min Rain = 0
KTAS 011625Z 05007KT 03/M09 A3036 RMK A01 T00331086  RH  041%=      5-min Rain = 0
KTAS 011626Z 06006KT 03/M09 A3036 RMK A01 T00331085  RH  042%=      5-min Rain = 0
KTAS 011627Z 06005KT 03/M09 A3036 RMK A01 T00331085  RH  042%=      5-min Rain = 0
KTAS 011628Z 06005KT 03/M08 A3037 RMK A01 T00341084  RH  042%=      5-min Rain = 0
KTAS 011629Z 06007KT 03/M08 A3036 RMK A01 T00341084  RH  042%=      5-min Rain = 0
KTAS 011630Z 06005KT 03/M08 A3036 RMK A01 T00341083  RH  042%=      5-min Rain = 0
KTAS 011631Z 06006KT 04/M08 A3037 RMK A01 T00351083  RH  042%=      5-min Rain = 0
KTAS 011632Z 05005KT 04/M08 A3037 RMK A01 T00351083  RH  042%=      5-min Rain = 0
KTAS 011633Z 04006KT 03/M08 A3037 RMK A01 T00341084  RH  042%=      5-min Rain = 0
KTAS 011634Z 03006KT 03/M09 A3037 RMK A01 T00341085  RH  042%=      5-min Rain = 0
KTAS 011635Z 02006KT 03/M08 A3037 RMK A01 T00341084  RH  042%=      5-min Rain = 0
KTAS 011636Z 03006KT 03/M08 A3037 RMK A01 T00341084  RH  042%=      5-min Rain = 0
KTAS 011637Z 02005KT 03/M08 A3037 RMK A01 T00341083  RH  042%=      5-min Rain = 0
KTAS 011638Z 03007KT 04/M08 A3037 RMK A01 T00351082  RH  042%=      5-min Rain = 0
KTAS 011639Z 03006KT 04/M08 A3037 RMK A01 T00351083  RH  042%=      5-min Rain = 0
KTAS 011640Z 02006KT 04/M08 A3037 RMK A01 T00351083  RH  042%=      5-min Rain = 0
KTAS 011641Z 02006KT 04/M08 A3037 RMK A01 T00351084  RH  041%=      5-min Rain = 0
KTAS 011642Z 03005KT 04/M08 A3037 RMK A01 T00351083  RH  041%=      5-min Rain = 0
KTAS 011643Z 03005KT 04/M08 A3037 RMK A01 T00361083  RH  042%=      5-min Rain = 0
KTAS 011644Z 03005KT 04/M08 A3037 RMK A01 T00371083  RH  041%=      5-min Rain = 0
KTAS 011645Z 02004KT 04/M08 A3037 RMK A01 T00381082  RH  041%=      5-min Rain = 0
KTAS 011646Z 03005KT 04/M08 A3037 RMK A01 T00381083  RH  041%=      5-min Rain = 0
KTAS 011647Z 05005KT 04/M08 A3038 RMK A01 T00371083  RH  041%=      5-min Rain = 0
KTAS 011648Z 05005KT 04/M08 A3038 RMK A01 T00371083  RH  041%=      5-min Rain = 0
KTAS 011649Z 06004KT 04/M08 A3038 RMK A01 T00381081  RH  041%=      5-min Rain = 0
KTAS 011650Z 07004KT 04/M08 A3038 RMK A01 T00381082  RH  041%=      5-min Rain = 0
KTAS 011651Z 07003KT 04/M09 A3038 RMK A01 T00361085  RH  041%=      5-min Rain = 0
KTAS 011652Z 07003KT 04/M08 A3038 RMK A01 T00351084  RH  041%=      5-min Rain = 0
KTAS 011653Z 03004KT 04/M08 A3038 RMK A01 T00361082  RH  042%=      5-min Rain = 0
KTAS 011654Z 02004KT 04/M08 A3038 RMK A01 T00371082  RH  042%=      5-min Rain = 0
KTAS 011655Z 02004KT 04/M08 A3038 RMK A01 T00371083  RH  041%=      5-min Rain = 0
KTAS 011656Z 01004KT 04/M08 A3038 RMK A01 T00371082  RH  041%=      5-min Rain = 0
KTAS 011657Z 03004KT 04/M08 A3038 RMK A01 T00371082  RH  041%=      5-min Rain = 0
KTAS 011658Z 06004KT 04/M08 A3038 RMK A01 T00371082  RH  042%=      5-min Rain = 0
KTAS 011659Z 05004KT 04/M08 A3038 RMK A01 T00371082  RH  042%=      5-min Rain = 0
KTAS 011700Z 03004KT 04/M08 A3038 RMK A01 T00371082  RH  041%=      5-min Rain = 0
KTAS 011701Z 03005KT 04/M08 A3038 RMK A01 T00381080  RH  042%=      5-min Rain = 0
KTAS 011702Z 02006KT 04/M08 A3038 RMK A01 T00391080  RH  042%=      5-min Rain = 0
KTAS 011703Z 02005KT 04/M08 A3038 RMK A01 T00371083  RH  041%=      5-min Rain = 0
KTAS 011704Z 01004KT 04/M08 A3038 RMK A01 T00371082  RH  041%=      5-min Rain = 0
KTAS 011705Z 00003KT 04/M08 A3038 RMK A01 T00371082  RH  042%=      5-min Rain = 0
KTAS 011706Z 03005KT 04/M08 A3038 RMK A01 T00381080  RH  042%=      5-min Rain = 0
KTAS 011707Z 04004KT 04/M08 A3038 RMK A01 T00381082  RH  041%=      5-min Rain = 0
KTAS 011708Z 04004KT 04/M08 A3038 RMK A01 T00381082  RH  041%=      5-min Rain = 0
KTAS 011709Z 04003KT 04/M08 A3038 RMK A01 T00371083  RH  041%=      5-min Rain = 0
KTAS 011710Z 06005KT 04/M08 A3038 RMK A01 T00371083  RH  041%=      5-min Rain = 0
KTAS 011711Z 06004KT 04/M08 A3038 RMK A01 T00371083  RH  041%=      5-min Rain = 0
KTAS 011712Z 06004KT 04/M08 A3038 RMK A01 T00371083  RH  041%=      5-min Rain = 0
KTAS 011713Z 06004KT 04/M08 A3038 RMK A01 T00381081  RH  042%=      5-min Rain = 0
KTAS 011714Z 06003KT 04/M08 A3038 RMK A01 T00381080  RH  042%=      5-min Rain = 0
KTAS 011715Z 07003KT 04/M08 A3038 RMK A01 T00391080  RH  042%=      5-min Rain = 0
KTAS 011716Z 05005KT 04/M08 A3038 RMK A01 T00391080  RH  042%=      5-min Rain = 0
KTAS 011717Z 03005KT 04/M08 A3038 RMK A01 T00391081  RH  041%=      5-min Rain = 0
KTAS 011718Z 04005KT 04/M08 A3039 RMK A01 T00391083  RH  041%=      5-min Rain = 0
KTAS 011719Z 05006KT 04/M08 A3039 RMK A01 T00401080  RH  041%=      5-min Rain = 0
KTAS 011720Z 05005KT 04/M08 A3039 RMK A01 T00411080  RH  041%=      5-min Rain = 0
KTAS 011721Z 05004KT 04/M08 A3039 RMK A01 T00411081  RH  041%=      5-min Rain = 0
KTAS 011722Z 06005KT 04/M08 A3039 RMK A01 T00401081  RH  041%=      5-min Rain = 0
KTAS 011723Z 04004KT 04/M08 A3039 RMK A01 T00401081  RH  041%=      5-min Rain = 0
KTAS 011724Z 02004KT 04/M08 A3039 RMK A01 T00401080  RH  041%=      5-min Rain = 0
KTAS 011725Z 03003KT 04/M08 A3039 RMK A01 T00411079  RH  041%=      5-min Rain = 0
KTAS 011726Z 01004KT 04/M08 A3039 RMK A01 T00421080  RH  041%=      5-min Rain = 0
KTAS 011727Z 02004KT 04/M08 A3039 RMK A01 T00421083  RH  040%=      5-min Rain = 0
KTAS 011728Z 04005KT 04/M08 A3038 RMK A01 T00411084  RH  040%=      5-min Rain = 0
KTAS 011729Z 03007KT 04/M08 A3038 RMK A01 T00411083  RH  040%=      5-min Rain = 0
KTAS 011730Z 02006KT 04/M08 A3038 RMK A01 T00391083  RH  040%=      5-min Rain = 0
KTAS 011731Z 00005KT 04/M08 A3039 RMK A01 T00401081  RH  041%=      5-min Rain = 0
KTAS 011732Z 35004KT 04/M08 A3039 RMK A01 T00401082  RH  041%=      5-min Rain = 0
KTAS 011733Z 00004KT 04/M08 A3039 RMK A01 T00411082  RH  041%=      5-min Rain = 0
KTAS 011734Z 01005KT 04/M08 A3039 RMK A01 T00401083  RH  040%=      5-min Rain = 0
KTAS 011735Z 02005KT 04/M08 A3039 RMK A01 T00401082  RH  041%=      5-min Rain = 0
KTAS 011736Z 01005KT 04/M08 A3039 RMK A01 T00411081  RH  041%=      5-min Rain = 0
KTAS 011737Z 01004KT 04/M08 A3039 RMK A01 T00411082  RH  040%=      5-min Rain = 0
KTAS 011738Z 02003KT 04/M08 A3039 RMK A01 T00401083  RH  040%=      5-min Rain = 0
KTAS 011739Z 02004KT 04/M08 A3039 RMK A01 T00411081  RH  041%=      5-min Rain = 0
KTAS 011740Z 04006KT 04/M08 A3039 RMK A01 T00421079  RH  041%=      5-min Rain = 0
KTAS 011741Z 02006KT 04/M08 A3039 RMK A01 T00421082  RH  040%=      5-min Rain = 0
KTAS 011742Z 02007KT 04/M08 A3039 RMK A01 T00421084  RH  039%=      5-min Rain = 0
KTAS 011743Z 02006KT 04/M09 A3039 RMK A01 T00421085  RH  039%=      5-min Rain = 0
KTAS 011744Z 03005KT 04/M09 A3039 RMK A01 T00411085  RH  039%=      5-min Rain = 0
KTAS 011745Z 01005KT 04/M08 A3039 RMK A01 T00411083  RH  040%=      5-min Rain = 0
KTAS 011746Z 02003KT 04/M08 A3039 RMK A01 T00421084  RH  040%=      5-min Rain = 0
KTAS 011747Z 03002KT 04/M08 A3039 RMK A01 T00411084  RH  040%=      5-min Rain = 0
KTAS 011748Z 01004KT 04/M08 A3039 RMK A01 T00411084  RH  040%=      5-min Rain = 0
KTAS 011749Z 02007KT 04/M08 A3038 RMK A01 T00411083  RH  040%=      5-min Rain = 0
KTAS 011750Z 03008KT 04/M08 A3038 RMK A01 T00421083  RH  040%=      5-min Rain = 0
KTAS 011751Z 02007KT 04/M08 A3038 RMK A01 T00421083  RH  040%=      5-min Rain = 0
KTAS 011752Z 02007KT 04/M08 A3038 RMK A01 T00411083  RH  040%=      5-min Rain = 0
KTAS 011753Z 01007KT 04/M08 A3038 RMK A01 T00421082  RH  040%=      5-min Rain = 0
KTAS 011754Z 01004KT 04/M08 A3039 RMK A01 T00411083  RH  040%=      5-min Rain = 0
KTAS 011755Z 01004KT 04/M08 A3039 RMK A01 T00421081  RH  040%=      5-min Rain = 0
KTAS 011756Z 01005KT 04/M08 A3039 RMK A01 T00431081  RH  040%=      5-min Rain = 0
KTAS 011757Z 00006KT 04/M08 A3039 RMK A01 T00431082  RH  040%=      5-min Rain = 0
KTAS 011758Z 02006KT 04/M08 A3039 RMK A01 T00431081  RH  040%=      5-min Rain = 0
KTAS 011759Z 02006KT 04/M08 A3039 RMK A01 T00441081  RH  040%=      5-min Rain = 0
KTAS 011800Z 01007KT 04/M08 A3039 RMK A01 T00431082  RH  040%=      5-min Rain = 0
KTAS 011801Z 02007KT 04/M08 A3039 RMK A01 T00441081  RH  040%=      5-min Rain = 0
KTAS 011802Z 01007KT 05/M08 A3039 RMK A01 T00451079  RH  040%=      5-min Rain = 0
KTAS 011803Z 00008KT 04/M08 A3039 RMK A01 T00441082  RH  039%=      5-min Rain = 0
KTAS 011804Z 00007KT 04/M08 A3039 RMK A01 T00441083  RH  039%=      5-min Rain = 0
KTAS 011805Z 00007KT 04/M08 A3039 RMK A01 T00441082  RH  040%=      5-min Rain = 0
KTAS 011806Z 36007KT 05/M08 A3039 RMK A01 T00451081  RH  040%=      5-min Rain = 0
KTAS 011807Z 35007KT 05/M08 A3039 RMK A01 T00451081  RH  039%=      5-min Rain = 0
KTAS 011808Z 00007KT 04/M08 A3039 RMK A01 T00441083  RH  039%=      5-min Rain = 0
KTAS 011809Z 36005KT 04/M08 A3039 RMK A01 T00441083  RH  039%=      5-min Rain = 0
KTAS 011810Z 36006KT 05/M08 A3039 RMK A01 T00451082  RH  039%=      5-min Rain = 0
KTAS 011811Z 03008KT 05/M09 A3039 RMK A01 T00451086  RH  038%=      5-min Rain = 0
KTAS 011812Z 03007KT 05/M09 A3039 RMK A01 T00461089  RH  037%=      5-min Rain = 0
KTAS 011813Z 03007KT 05/M09 A3039 RMK A01 T00451091  RH  036%=      5-min Rain = 0
KTAS 011814Z 03006KT 05/M09 A3039 RMK A01 T00451093  RH  036%=      5-min Rain = 0
KTAS 011815Z 04006KT 05/M09 A3039 RMK A01 T00471091  RH  036%=      5-min Rain = 0
KTAS 011816Z 03005KT 05/M09 A3039 RMK A01 T00471093  RH  036%=      5-min Rain = 0
KTAS 011817Z 02005KT 05/M09 A3039 RMK A01 T00471092  RH  036%=      5-min Rain = 0
KTAS 011818Z 04005KT 05/M09 A3039 RMK A01 T00481090  RH  036%=      5-min Rain = 0
KTAS 011819Z 05006KT 05/M09 A3039 RMK A01 T00481093  RH  035%=      5-min Rain = 0
KTAS 011820Z 03006KT 05/M10 A3039 RMK A01 T00481095  RH  035%=      5-min Rain = 0
KTAS 011821Z 01004KT 05/M09 A3039 RMK A01 T00481093  RH  035%=      5-min Rain = 0
KTAS 011822Z 02005KT 05/M09 A3038 RMK A01 T00481092  RH  035%=      5-min Rain = 0
KTAS 011823Z 03006KT 05/M09 A3038 RMK A01 T00491092  RH  035%=      5-min Rain = 0
KTAS 011824Z 03005KT 05/M09 A3038 RMK A01 T00491091  RH  035%=      5-min Rain = 0
KTAS 011825Z 04006KT 05/M09 A3038 RMK A01 T00511092  RH  035%=      5-min Rain = 0
KTAS 011826Z 05008KT 05/M09 A3038 RMK A01 T00521093  RH  034%=      5-min Rain = 0
KTAS 011827Z 04008KT 05/M10 A3038 RMK A01 T00511097  RH  034%=      5-min Rain = 0
KTAS 011828Z 03006KT 05/M10 A3038 RMK A01 T00491097  RH  034%=      5-min Rain = 0
KTAS 011829Z 03004KT 05/M10 A3038 RMK A01 T00481096  RH  034%=      5-min Rain = 0
KTAS 011830Z 03006KT 05/M09 A3038 RMK A01 T00501094  RH  035%=      5-min Rain = 0
KTAS 011831Z 04005KT 05/M09 A3039 RMK A01 T00501094  RH  034%=      5-min Rain = 0
KTAS 011832Z 06005KT 05/M09 A3039 RMK A01 T00511092  RH  035%=      5-min Rain = 0
KTAS 011833Z 05005KT 05/M09 A3039 RMK A01 T00521091  RH  035%=      5-min Rain = 0
KTAS 011834Z 05005KT 05/M09 A3039 RMK A01 T00521092  RH  034%=      5-min Rain = 0
KTAS 011835Z 06006KT 05/M09 A3039 RMK A01 T00521091  RH  035%=      5-min Rain = 0
KTAS 011836Z 06005KT 05/M09 A3039 RMK A01 T00521092  RH  035%=      5-min Rain = 0
KTAS 011837Z 06005KT 05/M09 A3039 RMK A01 T00501092  RH  035%=      5-min Rain = 0
KTAS 011838Z 02005KT 05/M09 A3039 RMK A01 T00521090  RH  035%=      5-min Rain = 0
KTAS 011839Z 00003KT 05/M09 A3039 RMK A01 T00511092  RH  035%=      5-min Rain = 0
KTAS 011840Z 05003KT 05/M09 A3039 RMK A01 T00501092  RH  035%=      5-min Rain = 0
KTAS 011841Z 04002KT 05/M09 A3039 RMK A01 T00501092  RH  035%=      5-min Rain = 0
KTAS 011842Z 04005KT 05/M09 A3039 RMK A01 T00501090  RH  035%=      5-min Rain = 0
KTAS 011843Z 04005KT 05/M09 A3039 RMK A01 T00511090  RH  035%=      5-min Rain = 0
KTAS 011844Z 05005KT 05/M09 A3039 RMK A01 T00521089  RH  035%=      5-min Rain = 0
KTAS 011845Z 01006KT 05/M09 A3039 RMK A01 T00521089  RH  035%=      5-min Rain = 0
KTAS 011846Z 03004KT 05/M09 A3039 RMK A01 T00541088  RH  035%=      5-min Rain = 0
KTAS 011847Z 03003KT 06/M09 A3039 RMK A01 T00561087  RH  035%=      5-min Rain = 0
KTAS 011848Z 04003KT 06/M09 A3039 RMK A01 T00571087  RH  035%=      5-min Rain = 0
KTAS 011849Z 06004KT 06/M09 A3039 RMK A01 T00561090  RH  034%=      5-min Rain = 0
KTAS 011850Z 05005KT 06/M09 A3039 RMK A01 T00561089  RH  034%=      5-min Rain = 0
KTAS 011851Z 06005KT 06/M09 A3039 RMK A01 T00561089  RH  034%=      5-min Rain = 0
KTAS 011852Z 05003KT 06/M09 A3039 RMK A01 T00551092  RH  034%=      5-min Rain = 0
KTAS 011853Z 05003KT 05/M09 A3039 RMK A01 T00541092  RH  034%=      5-min Rain = 0
KTAS 011854Z 05005KT 05/M09 A3039 RMK A01 T00541091  RH  034%=      5-min Rain = 0
KTAS 011855Z 05006KT 06/M09 A3039 RMK A01 T00551090  RH  034%=      5-min Rain = 0
KTAS 011856Z 05004KT 06/M10 A3039 RMK A01 T00561096  RH  033%=      5-min Rain = 0
KTAS 011857Z 06004KT 06/M10 A3039 RMK A01 T00551097  RH  032%=      5-min Rain = 0
KTAS 011858Z 07005KT 06/M10 A3039 RMK A01 T00571096  RH  032%=      5-min Rain = 0
KTAS 011859Z 06005KT 06/M10 A3039 RMK A01 T00571099  RH  032%=      5-min Rain = 0
KTAS 011900Z 04006KT 06/M10 A3039 RMK A01 T00561100  RH  032%=      5-min Rain = 0
KTAS 011901Z 03005KT 06/M10 A3039 RMK A01 T00551101  RH  032%=      5-min Rain = 0
KTAS 011902Z 06008KT 05/M10 A3039 RMK A01 T00541100  RH  032%=      5-min Rain = 0
KTAS 011903Z 06006KT 05/M10 A3039 RMK A01 T00541102  RH  031%=      5-min Rain = 0
KTAS 011904Z 05007KT 06/M10 A3039 RMK A01 T00551098  RH  032%=      5-min Rain = 0
KTAS 011905Z 06006KT 06/M10 A3039 RMK A01 T00561096  RH  033%=      5-min Rain = 0
KTAS 011906Z 06006KT 06/M10 A3039 RMK A01 T00561096  RH  032%=      5-min Rain = 0
KTAS 011907Z 05006KT 06/M10 A3038 RMK A01 T00551100  RH  032%=      5-min Rain = 0
KTAS 011908Z 05005KT 05/M10 A3038 RMK A01 T00541099  RH  032%=      5-min Rain = 0
KTAS 011909Z 05005KT 05/M10 A3038 RMK A01 T00541098  RH  033%=      5-min Rain = 0
KTAS 011910Z 05007KT 06/M10 A3038 RMK A01 T00561098  RH  032%=      5-min Rain = 0
KTAS 011911Z 05006KT 06/M11 A3038 RMK A01 T00561105  RH  030%=      5-min Rain = 0
KTAS 011912Z 06006KT 06/M10 A3038 RMK A01 T00571103  RH  031%=      5-min Rain = 0
KTAS 011913Z 04005KT 06/M10 A3038 RMK A01 T00571104  RH  030%=      5-min Rain = 0
KTAS 011914Z 06004KT 06/M11 A3038 RMK A01 T00561105  RH  030%=      5-min Rain = 0
KTAS 011915Z 06004KT 06/M10 A3038 RMK A01 T00571101  RH  031%=      5-min Rain = 0
KTAS 011916Z 05005KT 06/M10 A3038 RMK A01 T00581101  RH  031%=      5-min Rain = 0
KTAS 011917Z 06004KT 06/M10 A3038 RMK A01 T00581103  RH  030%=      5-min Rain = 0
KTAS 011918Z 04006KT 06/M10 A3038 RMK A01 T00591102  RH  030%=      5-min Rain = 0
KTAS 011919Z 04005KT 06/M11 A3038 RMK A01 T00591105  RH  030%=      5-min Rain = 0
KTAS 011920Z 05005KT 06/M11 A3038 RMK A01 T00601106  RH  029%=      5-min Rain = 0
KTAS 011921Z 04004KT 06/M11 A3038 RMK A01 T00611106  RH  029%=      5-min Rain = 0
KTAS 011922Z 04004KT 06/M11 A3038 RMK A01 T00611109  RH  028%=      5-min Rain = 0
KTAS 011923Z 05004KT 06/M11 A3038 RMK A01 T00611109  RH  028%=      5-min Rain = 0
KTAS 011924Z 06004KT 06/M11 A3038 RMK A01 T00611108  RH  029%=      5-min Rain = 0
KTAS 011925Z 06005KT 06/M11 A3038 RMK A01 T00621108  RH  029%=      5-min Rain = 0
KTAS 011926Z 04005KT 06/M11 A3038 RMK A01 T00611108  RH  029%=      5-min Rain = 0
KTAS 011927Z 04005KT 06/M11 A3038 RMK A01 T00601109  RH  028%=      5-min Rain = 0
KTAS 011928Z 03005KT 06/M11 A3038 RMK A01 T00591109  RH  029%=      5-min Rain = 0
KTAS 011929Z 08005KT 06/M10 A3038 RMK A01 T00621103  RH  030%=      5-min Rain = 0
KTAS 011930Z 08005KT 06/M10 A3038 RMK A01 T00641103  RH  029%=      5-min Rain = 0
KTAS 011931Z 08004KT 06/M11 A3038 RMK A01 T00641106  RH  029%=      5-min Rain = 0
KTAS 011932Z 04006KT 06/M11 A3038 RMK A01 T00631105  RH  029%=      5-min Rain = 0
KTAS 011933Z 04004KT 06/M11 A3038 RMK A01 T00621107  RH  029%=      5-min Rain = 0
KTAS 011934Z 05004KT 06/M11 A3038 RMK A01 T00611106  RH  029%=      5-min Rain = 0
KTAS 011935Z 06006KT 06/M10 A3038 RMK A01 T00621104  RH  029%=      5-min Rain = 0
KTAS 011936Z 07006KT 06/M10 A3038 RMK A01 T00631103  RH  029%=      5-min Rain = 0
KTAS 011937Z 06005KT 06/M11 A3038 RMK A01 T00631105  RH  029%=      5-min Rain = 0
KTAS 011938Z 05004KT 06/M11 A3038 RMK A01 T00621105  RH  029%=      5-min Rain = 0
KTAS 011939Z 05005KT 06/M11 A3038 RMK A01 T00621105  RH  029%=      5-min Rain = 0
KTAS 011940Z 06006KT 06/M10 A3038 RMK A01 T00621104  RH  029%=      5-min Rain = 0
KTAS 011941Z 06006KT 06/M10 A3038 RMK A01 T00621104  RH  029%=      5-min Rain = 0
KTAS 011942Z 06005KT 06/M11 A3038 RMK A01 T00621106  RH  029%=      5-min Rain = 0
KTAS 011943Z 06005KT 06/M10 A3038 RMK A01 T00621104  RH  029%=      5-min Rain = 0
KTAS 011944Z 06005KT 06/M10 A3038 RMK A01 T00631103  RH  029%=      5-min Rain = 0
KTAS 011945Z 07004KT 06/M10 A3038 RMK A01 T00641103  RH  029%=      5-min Rain = 0
KTAS 011946Z 06004KT 07/M10 A3038 RMK A01 T00651101  RH  029%=      5-min Rain = 0
KTAS 011947Z 08006KT 07/M10 A3038 RMK A01 T00661102  RH  029%=      5-min Rain = 0
KTAS 011948Z 08006KT 07/M10 A3038 RMK A01 T00651104  RH  029%=      5-min Rain = 0
KTAS 011949Z 08005KT 06/M11 A3038 RMK A01 T00641106  RH  029%=      5-min Rain = 0
KTAS 011950Z 10005KT 06/M11 A3038 RMK A01 T00631105  RH  029%=      5-min Rain = 0
KTAS 011951Z 10005KT 06/M11 A3037 RMK A01 T00631105  RH  029%=      5-min Rain = 0
KTAS 011952Z 07007KT 06/M10 A3037 RMK A01 T00641102  RH  029%=      5-min Rain = 0
KTAS 011953Z 05007KT 07/M10 A3037 RMK A01 T00671102  RH  029%=      5-min Rain = 0
KTAS 011954Z 05006KT 07/M10 A3037 RMK A01 T00671103  RH  028%=      5-min Rain = 0
KTAS 011955Z 06005KT 07/M11 A3037 RMK A01 T00671105  RH  028%=      5-min Rain = 0
KTAS 011956Z 06005KT 07/M11 A3037 RMK A01 T00651106  RH  028%=      5-min Rain = 0
KTAS 011957Z 07005KT 07/M10 A3037 RMK A01 T00661104  RH  029%=      5-min Rain = 0
KTAS 011958Z 07006KT 07/M10 A3037 RMK A01 T00661103  RH  029%=      5-min Rain = 0
KTAS 011959Z 06005KT 07/M10 A3037 RMK A01 T00661103  RH  029%=      5-min Rain = 0
KTAS 012000Z 07004KT 07/M10 A3037 RMK A01 T00671103  RH  029%=      5-min Rain = 0
KTAS 012001Z 08005KT 07/M10 A3037 RMK A01 T00671104  RH  028%=      5-min Rain = 0
KTAS 012002Z 06005KT 07/M11 A3037 RMK A01 T00661106  RH  028%=      5-min Rain = 0
KTAS 012003Z 06005KT 07/M11 A3037 RMK A01 T00651106  RH  028%=      5-min Rain = 0
KTAS 012004Z 06004KT 06/M11 A3037 RMK A01 T00641107  RH  028%=      5-min Rain = 0
KTAS 012005Z 07006KT 07/M11 A3037 RMK A01 T00651105  RH  028%=      5-min Rain = 0
KTAS 012006Z 08006KT 07/M10 A3037 RMK A01 T00671104  RH  028%=      5-min Rain = 0
KTAS 012007Z 06006KT 07/M10 A3037 RMK A01 T00691102  RH  028%=      5-min Rain = 0
KTAS 012008Z 06004KT 07/M11 A3037 RMK A01 T00681106  RH  028%=      5-min Rain = 0
KTAS 012009Z 09005KT 07/M11 A3037 RMK A01 T00671106  RH  028%=      5-min Rain = 0
KTAS 012010Z 10005KT 07/M10 A3037 RMK A01 T00681104  RH  028%=      5-min Rain = 0
KTAS 012011Z 10008KT 07/M10 A3037 RMK A01 T00691100  RH  029%=      5-min Rain = 0
KTAS 012012Z 11007KT 07/M10 A3037 RMK A01 T00671102  RH  029%=      5-min Rain = 0
KTAS 012013Z 13007KT 07/M10 A3037 RMK A01 T00651103  RH  029%=      5-min Rain = 0
KTAS 012014Z 12007KT 06/M10 A3037 RMK A01 T00641103  RH  029%=      5-min Rain = 0
KTAS 012015Z 12004KT 06/M11 A3037 RMK A01 T00631105  RH  029%=      5-min Rain = 0
KTAS 012016Z 13004KT 06/M10 A3037 RMK A01 T00631104  RH  029%=      5-min Rain = 0
KTAS 012017Z 11005KT 06/M10 A3037 RMK A01 T00631101  RH  030%=      5-min Rain = 0
KTAS 012018Z 10006KT 06/M10 A3037 RMK A01 T00631101  RH  030%=      5-min Rain = 0
KTAS 012019Z 10006KT 07/M10 A3037 RMK A01 T00651100  RH  030%=      5-min Rain = 0
KTAS 012020Z 09006KT 07/M10 A3037 RMK A01 T00651102  RH  029%=      5-min Rain = 0
KTAS 012021Z 09007KT 07/M10 A3037 RMK A01 T00661102  RH  029%=      5-min Rain = 0
KTAS 012022Z 10005KT 07/M10 A3036 RMK A01 T00661104  RH  028%=      5-min Rain = 0
KTAS 012023Z 08005KT 07/M11 A3036 RMK A01 T00651105  RH  028%=      5-min Rain = 0
KTAS 012024Z 09006KT 07/M10 A3036 RMK A01 T00661104  RH  029%=      5-min Rain = 0
KTAS 012025Z 09005KT 07/M11 A3036 RMK A01 T00651105  RH  029%=      5-min Rain = 0
KTAS 012026Z 08005KT 07/M10 A3036 RMK A01 T00651103  RH  029%=      5-min Rain = 0
KTAS 012027Z 10006KT 07/M10 A3036 RMK A01 T00651104  RH  029%=      5-min Rain = 0
KTAS 012028Z 10004KT 07/M11 A3036 RMK A01 T00651107  RH  028%=      5-min Rain = 0
KTAS 012029Z 09003KT 06/M11 A3036 RMK A01 T00641108  RH  028%=      5-min Rain = 0
KTAS 012030Z 10004KT 06/M11 A3036 RMK A01 T00641105  RH  029%=      5-min Rain = 0
KTAS 012031Z 11003KT 06/M11 A3036 RMK A01 T00641106  RH  028%=      5-min Rain = 0
KTAS 012032Z 11004KT 06/M11 A3036 RMK A01 T00641105  RH  029%=      5-min Rain = 0
KTAS 012033Z 09006KT 06/M11 A3036 RMK A01 T00641105  RH  029%=      5-min Rain = 0
KTAS 012034Z 10004KT 07/M11 A3036 RMK A01 T00651106  RH  028%=      5-min Rain = 0
KTAS 012035Z 08003KT 06/M11 A3036 RMK A01 T00641106  RH  028%=      5-min Rain = 0
KTAS 012036Z 09005KT 07/M10 A3036 RMK A01 T00661103  RH  029%=      5-min Rain = 0
KTAS 012037Z 08006KT 07/M10 A3036 RMK A01 T00671104  RH  028%=      5-min Rain = 0
KTAS 012038Z 09004KT 07/M11 A3036 RMK A01 T00661108  RH  028%=      5-min Rain = 0
KTAS 012039Z 08003KT 07/M11 A3036 RMK A01 T00651107  RH  028%=      5-min Rain = 0
KTAS 012040Z 08003KT 07/M11 A3036 RMK A01 T00651108  RH  028%=      5-min Rain = 0
KTAS 012041Z 09003KT 07/M11 A3036 RMK A01 T00651108  RH  028%=      5-min Rain = 0
KTAS 012042Z 06005KT 07/M11 A3036 RMK A01 T00661107  RH  028%=      5-min Rain = 0
KTAS 012043Z 08005KT 07/M11 A3036 RMK A01 T00661107  RH  028%=      5-min Rain = 0
KTAS 012044Z 10007KT 07/M11 A3036 RMK A01 T00661109  RH  028%=      5-min Rain = 0
KTAS 012045Z 09006KT 07/M11 A3036 RMK A01 T00661107  RH  028%=      5-min Rain = 0
KTAS 012046Z 08006KT 07/M11 A3036 RMK A01 T00671106  RH  028%=      5-min Rain = 0
KTAS 012047Z 07007KT 07/M11 A3036 RMK A01 T00691106  RH  028%=      5-min Rain = 0
KTAS 012048Z 06006KT 07/M11 A3036 RMK A01 T00691108  RH  027%=      5-min Rain = 0
KTAS 012049Z 07006KT 07/M11 A3036 RMK A01 T00681109  RH  027%=      5-min Rain = 0
KTAS 012050Z 06007KT 07/M11 A3036 RMK A01 T00691107  RH  027%=      5-min Rain = 0
KTAS 012051Z 07007KT 07/M11 A3036 RMK A01 T00701107  RH  027%=      5-min Rain = 0
KTAS 012052Z 08007KT 07/M11 A3036 RMK A01 T00701109  RH  027%=      5-min Rain = 0
KTAS 012053Z 08009KT 07/M11 A3036 RMK A01 T00701108  RH  027%=      5-min Rain = 0
KTAS 012054Z 07008KT 07/M11 A3036 RMK A01 T00711107  RH  027%=      5-min Rain = 0
KTAS 012055Z 08008KT 07/M11 A3036 RMK A01 T00711109  RH  027%=      5-min Rain = 0
KTAS 012056Z 07007KT 07/M11 A3036 RMK A01 T00701111  RH  026%=      5-min Rain = 0
KTAS 012057Z 06006KT 07/M11 A3036 RMK A01 T00701112  RH  026%=      5-min Rain = 0
KTAS 012058Z 07007KT 07/M11 A3036 RMK A01 T00701109  RH  027%=      5-min Rain = 0
KTAS 012059Z 08007KT 07/M11 A3036 RMK A01 T00701110  RH  026%=      5-min Rain = 0
KTAS 012100Z 07005KT 07/M11 A3036 RMK A01 T00701110  RH  026%=      5-min Rain = 0
KTAS 012101Z 08005KT 07/M11 A3036 RMK A01 T00711109  RH  027%=      5-min Rain = 0
KTAS 012102Z 08005KT 07/M11 A3036 RMK A01 T00721107  RH  027%=      5-min Rain = 0
KTAS 012103Z 07006KT 07/M11 A3036 RMK A01 T00741106  RH  027%=      5-min Rain = 0
KTAS 012104Z 07008KT 08/M11 A3036 RMK A01 T00751109  RH  026%=      5-min Rain = 0
KTAS 012105Z 06008KT 07/M12 A3035 RMK A01 T00741117  RH  024%=      5-min Rain = 0
KTAS 012106Z 08007KT 07/M12 A3035 RMK A01 T00721120  RH  024%=      5-min Rain = 0
KTAS 012107Z 07008KT 07/M12 A3035 RMK A01 T00721119  RH  024%=      5-min Rain = 0
KTAS 012108Z 08010KT 07/M12 A3035 RMK A01 T00731120  RH  024%=      5-min Rain = 0
KTAS 012109Z 09009KT 07/M12 A3035 RMK A01 T00721124  RH  023%=      5-min Rain = 0
KTAS 012110Z 08009KT 07/M12 A3035 RMK A01 T00721123  RH  024%=      5-min Rain = 0
KTAS 012111Z 07008KT 07/M12 A3035 RMK A01 T00721122  RH  024%=      5-min Rain = 0
KTAS 012112Z 07008KT 07/M12 A3035 RMK A01 T00711122  RH  024%=      5-min Rain = 0
KTAS 012113Z 07010KT 07/M12 A3035 RMK A01 T00721119  RH  024%=      5-min Rain = 0
KTAS 012114Z 08007KT 07/M12 A3035 RMK A01 T00731118  RH  024%=      5-min Rain = 0
KTAS 012115Z 09009KT 08/M12 A3035 RMK A01 T00751118  RH  024%=      5-min Rain = 0
KTAS 012116Z 07008KT 08/M12 A3035 RMK A01 T00751122  RH  023%=      5-min Rain = 0
KTAS 012117Z 09007KT 07/M13 A3035 RMK A01 T00731125  RH  023%=      5-min Rain = 0
KTAS 012118Z 09006KT 07/M12 A3035 RMK A01 T00731122  RH  023%=      5-min Rain = 0
KTAS 012119Z 07004KT 07/M12 A3035 RMK A01 T00741120  RH  024%=      5-min Rain = 0
KTAS 012120Z 08005KT 08/M12 A3035 RMK A01 T00761118  RH  024%=      5-min Rain = 0
KTAS 012121Z 08005KT 08/M12 A3035 RMK A01 T00771117  RH  024%=      5-min Rain = 0
KTAS 012122Z 07007KT 08/M12 A3035 RMK A01 T00771119  RH  023%=      5-min Rain = 0
KTAS 012123Z 08008KT 08/M12 A3035 RMK A01 T00781119  RH  023%=      5-min Rain = 0
KTAS 012124Z 08010KT 08/M12 A3035 RMK A01 T00761122  RH  023%=      5-min Rain = 0
KTAS 012125Z 08007KT 08/M12 A3035 RMK A01 T00751118  RH  024%=      5-min Rain = 0
KTAS 012126Z 07006KT 07/M12 A3035 RMK A01 T00741118  RH  024%=      5-min Rain = 0
KTAS 012127Z 08007KT 08/M12 A3035 RMK A01 T00751116  RH  024%=      5-min Rain = 0
KTAS 012128Z 09009KT 08/M12 A3035 RMK A01 T00751116  RH  024%=      5-min Rain = 0
KTAS 012129Z 11008KT 07/M12 A3035 RMK A01 T00741117  RH  024%=      5-min Rain = 0
KTAS 012130Z 09007KT 07/M12 A3035 RMK A01 T00731116  RH  025%=      5-min Rain = 0
KTAS 012131Z 08008KT 07/M12 A3035 RMK A01 T00731118  RH  024%=      5-min Rain = 0
KTAS 012132Z 09007KT 07/M12 A3035 RMK A01 T00731117  RH  024%=      5-min Rain = 0
KTAS 012133Z 08008KT 07/M12 A3035 RMK A01 T00731116  RH  025%=      5-min Rain = 0
KTAS 012134Z 08007KT 07/M12 A3035 RMK A01 T00721117  RH  025%=      5-min Rain = 0
KTAS 012135Z 08007KT 07/M12 A3035 RMK A01 T00721116  RH  025%=      5-min Rain = 0
KTAS 012136Z 08008KT 07/M12 A3035 RMK A01 T00731117  RH  024%=      5-min Rain = 0
KTAS 012137Z 08007KT 07/M12 A3035 RMK A01 T00741119  RH  024%=      5-min Rain = 0
KTAS 012138Z 06006KT 07/M12 A3035 RMK A01 T00721122  RH  024%=      5-min Rain = 0
KTAS 012139Z 06004KT 07/M12 A3035 RMK A01 T00721122  RH  024%=      5-min Rain = 0
KTAS 012140Z 08004KT 07/M12 A3035 RMK A01 T00721122  RH  024%=      5-min Rain = 0
KTAS 012141Z 08004KT 07/M12 A3035 RMK A01 T00731123  RH  023%=      5-min Rain = 0
KTAS 012142Z 10004KT 07/M13 A3035 RMK A01 T00721127  RH  023%=      5-min Rain = 0
KTAS 012143Z 10005KT 07/M13 A3035 RMK A01 T00711127  RH  023%=      5-min Rain = 0
KTAS 012144Z 07005KT 07/M13 A3035 RMK A01 T00731125  RH  023%=      5-min Rain = 0
KTAS 012145Z 07009KT 07/M13 A3035 RMK A01 T00741126  RH  023%=      5-min Rain = 0
KTAS 012146Z 10007KT 08/M13 A3035 RMK A01 T00761125  RH  022%=      5-min Rain = 0
KTAS 012147Z 07009KT 08/M13 A3035 RMK A01 T00761126  RH  022%=      5-min Rain = 0
KTAS 012148Z 07007KT 07/M13 A3035 RMK A01 T00741131  RH  022%=      5-min Rain = 0
KTAS 012149Z 07008KT 07/M13 A3035 RMK A01 T00721133  RH  022%=      5-min Rain = 0
KTAS 012150Z 06007KT 07/M14 A3035 RMK A01 T00711135  RH  021%=      5-min Rain = 0
KTAS 012151Z 06006KT 07/M14 A3035 RMK A01 T00711137  RH  021%=      5-min Rain = 0
KTAS 012152Z 06008KT 07/M14 A3035 RMK A01 T00711137  RH  021%=      5-min Rain = 0
KTAS 012153Z 07006KT 07/M14 A3035 RMK A01 T00701137  RH  021%=      5-min Rain = 0
KTAS 012154Z 09006KT 07/M14 A3035 RMK A01 T00701139  RH  021%=      5-min Rain = 0
KTAS 012155Z 08003KT 07/M14 A3035 RMK A01 T00711138  RH  021%=      5-min Rain = 0
KTAS 012156Z 10004KT 07/M14 A3035 RMK A01 T00711138  RH  021%=      5-min Rain = 0
KTAS 012157Z 07004KT 07/M14 A3035 RMK A01 T00731135  RH  021%=      5-min Rain = 0
KTAS 012158Z 07003KT 07/M14 A3035 RMK A01 T00731138  RH  021%=      5-min Rain = 0
KTAS 012159Z 08007KT 07/M14 A3035 RMK A01 T00741137  RH  021%=      5-min Rain = 0
KTAS 012200Z 10006KT 07/M14 A3035 RMK A01 T00731140  RH  020%=      5-min Rain = 0
KTAS 012201Z 11004KT 07/M14 A3035 RMK A01 T00721142  RH  020%=      5-min Rain = 0
KTAS 012202Z 08006KT 07/M14 A3035 RMK A01 T00721141  RH  020%=      5-min Rain = 0
KTAS 012203Z 08008KT 07/M14 A3035 RMK A01 T00721141  RH  020%=      5-min Rain = 0
KTAS 012204Z 09007KT 07/M14 A3035 RMK A01 T00731140  RH  020%=      5-min Rain = 0
KTAS 012205Z 07006KT 07/M14 A3035 RMK A01 T00731139  RH  021%=      5-min Rain = 0
KTAS 012206Z 07006KT 07/M14 A3035 RMK A01 T00731140  RH  020%=      5-min Rain = 0
KTAS 012207Z 06005KT 07/M14 A3035 RMK A01 T00731140  RH  020%=      5-min Rain = 0
KTAS 012208Z 05005KT 07/M14 A3035 RMK A01 T00721141  RH  020%=      5-min Rain = 0
KTAS 012209Z 08006KT 07/M14 A3035 RMK A01 T00711142  RH  020%=      5-min Rain = 0
KTAS 012210Z 08007KT 07/M14 A3035 RMK A01 T00721140  RH  021%=      5-min Rain = 0
KTAS 012211Z 09006KT 07/M14 A3035 RMK A01 T00721140  RH  020%=      5-min Rain = 0
KTAS 012212Z 07005KT 07/M14 A3035 RMK A01 T00711143  RH  020%=      5-min Rain = 0
KTAS 012213Z 08006KT 07/M14 A3035 RMK A01 T00711141  RH  020%=      5-min Rain = 0
KTAS 012214Z 09003KT 07/M14 A3035 RMK A01 T00711142  RH  020%=      5-min Rain = 0
KTAS 012215Z 11005KT 07/M14 A3035 RMK A01 T00701142  RH  020%=      5-min Rain = 0
KTAS 012216Z 11004KT 07/M14 A3035 RMK A01 T00701142  RH  020%=      5-min Rain = 0
KTAS 012217Z 09004KT 07/M14 A3035 RMK A01 T00701144  RH  020%=      5-min Rain = 0
KTAS 012218Z 11007KT 07/M14 A3035 RMK A01 T00701141  RH  021%=      5-min Rain = 0
KTAS 012219Z 10006KT 07/M14 A3035 RMK A01 T00701140  RH  021%=      5-min Rain = 0
KTAS 012220Z 09005KT 07/M14 A3035 RMK A01 T00701140  RH  021%=      5-min Rain = 0
KTAS 012221Z 10006KT 07/M14 A3035 RMK A01 T00691140  RH  021%=      5-min Rain = 0
KTAS 012222Z 11006KT 07/M14 A3035 RMK A01 T00691140  RH  021%=      5-min Rain = 0
KTAS 012223Z 10004KT 07/M14 A3035 RMK A01 T00681140  RH  021%=      5-min Rain = 0
KTAS 012224Z 09003KT 07/M14 A3035 RMK A01 T00701137  RH  021%=      5-min Rain = 0
KTAS 012225Z 11004KT 07/M14 A3035 RMK A01 T00711135  RH  021%=      5-min Rain = 0
KTAS 012226Z 08004KT 07/M14 A3035 RMK A01 T00711138  RH  021%=      5-min Rain = 0
KTAS 012227Z 09003KT 07/M14 A3035 RMK A01 T00701139  RH  021%=      5-min Rain = 0
KTAS 012228Z 10003KT 07/M14 A3035 RMK A01 T00701138  RH  021%=      5-min Rain = 0
KTAS 012229Z 10007KT 07/M14 A3035 RMK A01 T00701138  RH  021%=      5-min Rain = 0
KTAS 012230Z 09005KT 07/M14 A3035 RMK A01 T00691138  RH  021%=      5-min Rain = 0
KTAS 012231Z 10004KT 07/M14 A3035 RMK A01 T00681139  RH  021%=      5-min Rain = 0
KTAS 012232Z 12004KT 07/M14 A3035 RMK A01 T00691136  RH  022%=      5-min Rain = 0
KTAS 012233Z 11006KT 07/M14 A3035 RMK A01 T00701135  RH  022%=      5-min Rain = 0
KTAS 012234Z 11006KT 07/M14 A3035 RMK A01 T00691138  RH  021%=      5-min Rain = 0
KTAS 012235Z 12005KT 07/M14 A3035 RMK A01 T00681140  RH  021%=      5-min Rain = 0
KTAS 012236Z 12006KT 07/M14 A3035 RMK A01 T00681137  RH  022%=      5-min Rain = 0
KTAS 012237Z 10005KT 07/M14 A3035 RMK A01 T00681138  RH  021%=      5-min Rain = 0
KTAS 012238Z 09006KT 07/M14 A3035 RMK A01 T00691136  RH  022%=      5-min Rain = 0
KTAS 012239Z 09005KT 07/M14 A3035 RMK A01 T00691136  RH  022%=      5-min Rain = 0
KTAS 012240Z 09006KT 07/M13 A3035 RMK A01 T00691134  RH  022%=      5-min Rain = 0
KTAS 012241Z 10006KT 07/M14 A3035 RMK A01 T00691137  RH  021%=      5-min Rain = 0
KTAS 012242Z 10007KT 07/M14 A3035 RMK A01 T00681138  RH  021%=      5-min Rain = 0
KTAS 012243Z 10006KT 07/M14 A3035 RMK A01 T00671138  RH  022%=      5-min Rain = 0
KTAS 012244Z 10006KT 07/M14 A3035 RMK A01 T00671136  RH  022%=      5-min Rain = 0
KTAS 012245Z 10007KT 07/M14 A3035 RMK A01 T00681136  RH  022%=      5-min Rain = 0
KTAS 012246Z 10006KT 07/M14 A3035 RMK A01 T00671136  RH  022%=      5-min Rain = 0
KTAS 012247Z 11006KT 07/M14 A3035 RMK A01 T00671137  RH  022%=      5-min Rain = 0
KTAS 012248Z 11004KT 07/M14 A3035 RMK A01 T00661137  RH  022%=      5-min Rain = 0
KTAS 012249Z 10006KT 07/M14 A3035 RMK A01 T00661136  RH  022%=      5-min Rain = 0
KTAS 012250Z 10004KT 07/M14 A3035 RMK A01 T00661135  RH  022%=      5-min Rain = 0
KTAS 012251Z 12004KT 07/M13 A3035 RMK A01 T00671134  RH  022%=      5-min Rain = 0
KTAS 012252Z 12005KT 07/M13 A3035 RMK A01 T00681134  RH  022%=      5-min Rain = 0
KTAS 012253Z 11004KT 07/M13 A3035 RMK A01 T00681133  RH  022%=      5-min Rain = 0
KTAS 012254Z 12005KT 07/M13 A3035 RMK A01 T00681134  RH  022%=      5-min Rain = 0
KTAS 012255Z 14004KT 07/M14 A3035 RMK A01 T00681136  RH  022%=      5-min Rain = 0
KTAS 012256Z 13004KT 07/M14 A3035 RMK A01 T00681136  RH  022%=      5-min Rain = 0
KTAS 012257Z 10003KT 07/M14 A3035 RMK A01 T00681135  RH  022%=      5-min Rain = 0
KTAS 012258Z 12003KT 07/M14 A3035 RMK A01 T00671138  RH  022%=      5-min Rain = 0
KTAS 012259Z 11005KT 07/M14 A3035 RMK A01 T00671135  RH  022%=      5-min Rain = 0
KTAS 012300Z 12005KT 07/M14 A3035 RMK A01 T00671135  RH  022%=      5-min Rain = 0
KTAS 012301Z 12004KT 07/M14 A3035 RMK A01 T00671135  RH  022%=      5-min Rain = 0
KTAS 012302Z 12004KT 07/M14 A3035 RMK A01 T00671135  RH  022%=      5-min Rain = 0
KTAS 012303Z 10006KT 07/M13 A3035 RMK A01 T00681134  RH  022%=      5-min Rain = 0
KTAS 012304Z 10004KT 07/M14 A3035 RMK A01 T00671137  RH  022%=      5-min Rain = 0
KTAS 012305Z 08005KT 07/M14 A3035 RMK A01 T00661137  RH  022%=      5-min Rain = 0
KTAS 012306Z 10005KT 07/M13 A3035 RMK A01 T00661134  RH  022%=      5-min Rain = 0
KTAS 012307Z 10005KT 07/M13 A3035 RMK A01 T00671133  RH  022%=      5-min Rain = 0
KTAS 012308Z 10005KT 07/M14 A3035 RMK A01 T00671135  RH  022%=      5-min Rain = 0
KTAS 012309Z 09005KT 07/M14 A3035 RMK A01 T00671135  RH  022%=      5-min Rain = 0
KTAS 012310Z 09007KT 07/M13 A3035 RMK A01 T00671133  RH  022%=      5-min Rain = 0
KTAS 012311Z 09006KT 07/M13 A3035 RMK A01 T00661133  RH  023%=      5-min Rain = 0
KTAS 012312Z 10005KT 07/M13 A3035 RMK A01 T00661130  RH  023%=      5-min Rain = 0
KTAS 012313Z 11003KT 07/M13 A3035 RMK A01 T00671127  RH  024%=      5-min Rain = 0
KTAS 012314Z 11006KT 07/M13 A3035 RMK A01 T00681127  RH  023%=      5-min Rain = 0
KTAS 012315Z 14005KT 07/M13 A3035 RMK A01 T00681128  RH  023%=      5-min Rain = 0
KTAS 012316Z 12005KT 07/M13 A3035 RMK A01 T00671129  RH  023%=      5-min Rain = 0
KTAS 012317Z 13004KT 07/M13 A3035 RMK A01 T00661130  RH  023%=      5-min Rain = 0
KTAS 012318Z 13004KT 07/M13 A3035 RMK A01 T00671128  RH  023%=      5-min Rain = 0
KTAS 012319Z 11005KT 07/M13 A3035 RMK A01 T00681127  RH  023%=      5-min Rain = 0
KTAS 012320Z 09005KT 07/M13 A3035 RMK A01 T00681129  RH  023%=      5-min Rain = 0
KTAS 012321Z 09005KT 07/M13 A3035 RMK A01 T00671130  RH  023%=      5-min Rain = 0
KTAS 012322Z 09005KT 07/M13 A3035 RMK A01 T00671128  RH  023%=      5-min Rain = 0
KTAS 012323Z 10006KT 07/M13 A3035 RMK A01 T00671127  RH  023%=      5-min Rain = 0
KTAS 012324Z 09005KT 07/M13 A3035 RMK A01 T00681126  RH  023%=      5-min Rain = 0
KTAS 012325Z 09003KT 07/M13 A3035 RMK A01 T00681127  RH  024%=      5-min Rain = 0
KTAS 012326Z 13004KT 07/M12 A3035 RMK A01 T00681124  RH  024%=      5-min Rain = 0
KTAS 012327Z 12005KT 07/M12 A3035 RMK A01 T00691123  RH  024%=      5-min Rain = 0
KTAS 012328Z 11004KT 07/M13 A3035 RMK A01 T00681125  RH  024%=      5-min Rain = 0
KTAS 012329Z 10004KT 07/M12 A3035 RMK A01 T00671124  RH  024%=      5-min Rain = 0
KTAS 012330Z 10004KT 07/M12 A3035 RMK A01 T00661123  RH  024%=      5-min Rain = 0
KTAS 012331Z 13004KT 07/M12 A3035 RMK A01 T00661120  RH  025%=      5-min Rain = 0
KTAS 012332Z 13005KT 07/M12 A3035 RMK A01 T00671118  RH  025%=      5-min Rain = 0
KTAS 012333Z 11004KT 07/M12 A3035 RMK A01 T00661120  RH  025%=      5-min Rain = 0
KTAS 012334Z 10005KT 07/M12 A3035 RMK A01 T00651121  RH  025%=      5-min Rain = 0
KTAS 012335Z 10004KT 06/M12 A3035 RMK A01 T00641120  RH  025%=      5-min Rain = 0
KTAS 012336Z 10003KT 06/M12 A3035 RMK A01 T00641118  RH  026%=      5-min Rain = 0
KTAS 012337Z 10004KT 06/M12 A3035 RMK A01 T00641119  RH  026%=      5-min Rain = 0
KTAS 012338Z 11004KT 06/M12 A3035 RMK A01 T00641120  RH  025%=      5-min Rain = 0
KTAS 012339Z 12003KT 06/M12 A3035 RMK A01 T00641121  RH  025%=      5-min Rain = 0
KTAS 012340Z 11005KT 06/M12 A3035 RMK A01 T00631120  RH  025%=      5-min Rain = 0
KTAS 012341Z 13004KT 06/M12 A3035 RMK A01 T00631119  RH  026%=      5-min Rain = 0
KTAS 012342Z 13004KT 06/M12 A3035 RMK A01 T00621120  RH  026%=      5-min Rain = 0
KTAS 012343Z 14003KT 06/M12 A3035 RMK A01 T00621119  RH  026%=      5-min Rain = 0
KTAS 012344Z 14004KT 06/M12 A3035 RMK A01 T00621116  RH  027%=      5-min Rain = 0
KTAS 012345Z 14003KT 06/M12 A3035 RMK A01 T00621115  RH  027%=      5-min Rain = 0
KTAS 012346Z 11003KT 06/M12 A3035 RMK A01 T00621116  RH  027%=      5-min Rain = 0
KTAS 012347Z 11003KT 06/M12 A3035 RMK A01 T00621117  RH  026%=      5-min Rain = 0
KTAS 012348Z 13003KT 06/M12 A3035 RMK A01 T00621118  RH  026%=      5-min Rain = 0
KTAS 012349Z 13004KT 06/M12 A3035 RMK A01 T00621117  RH  027%=      5-min Rain = 0
KTAS 012350Z 13004KT 06/M12 A3035 RMK A01 T00621118  RH  026%=      5-min Rain = 0
KTAS 012351Z 13004KT 06/M12 A3035 RMK A01 T00621119  RH  026%=      5-min Rain = 0
KTAS 012352Z 13003KT 06/M12 A3035 RMK A01 T00621118  RH  026%=      5-min Rain = 0
KTAS 012353Z 14004KT 06/M12 A3035 RMK A01 T00621118  RH  026%=      5-min Rain = 0
KTAS 012354Z 13005KT 06/M12 A3035 RMK A01 T00621120  RH  026%=      5-min Rain = 0
KTAS 012355Z 13004KT 06/M12 A3035 RMK A01 T00621120  RH  026%=      5-min Rain = 0
KTAS 012356Z 12004KT 06/M12 A3035 RMK A01 T00621119  RH  026%=      5-min Rain = 0
KTAS 012357Z 12003KT 06/M12 A3035 RMK A01 T00621119  RH  026%=      5-min Rain = 0
KTAS 012358Z 13003KT 06/M12 A3035 RMK A01 T00621119  RH  026%=      5-min Rain = 0
KTAS 012359Z 11003KT 06/M12 A3035 RMK A01 T00611118  RH  026%=      5-min Rain = 0
KTAS 020000Z 12003KT 06/M12 A3035 RMK A01 T00621118  RH  026%=      5-min Rain = 0
KTAS 020001Z 13002KT 06/M12 A3035 RMK A01 T00621118  RH  026%=      5-min Rain = 0
KTAS 020002Z 13002KT 06/M12 A3035 RMK A01 T00621118  RH  026%=      5-min Rain = 0
KTAS 020003Z 12002KT 06/M12 A3035 RMK A01 T00621120  RH  026%=      5-min Rain = 0
KTAS 020004Z 12002KT 06/M12 A3035 RMK A01 T00611122  RH  026%=      5-min Rain = 0
KTAS 020005Z 13002KT 06/M12 A3035 RMK A01 T00611121  RH  026%=      5-min Rain = 0
KTAS 020006Z 13002KT 06/M12 A3035 RMK A01 T00601119  RH  026%=      5-min Rain = 0
KTAS 020007Z 11002KT 06/M12 A3035 RMK A01 T00601118  RH  027%=      5-min Rain = 0
KTAS 020008Z 12003KT 06/M12 A3035 RMK A01 T00601118  RH  027%=      5-min Rain = 0
KTAS 020009Z 12003KT 06/M12 A3035 RMK A01 T00601118  RH  027%=      5-min Rain = 0
KTAS 020010Z 12004KT 06/M12 A3035 RMK A01 T00591118  RH  027%=      5-min Rain = 0
KTAS 020011Z 12004KT 06/M12 A3035 RMK A01 T00591118  RH  027%=      5-min Rain = 0
KTAS 020012Z 12004KT 06/M12 A3035 RMK A01 T00581118  RH  027%=      5-min Rain = 0
KTAS 020013Z 12003KT 06/M12 A3035 RMK A01 T00581118  RH  027%=      5-min Rain = 0
KTAS 020014Z 12003KT 06/M12 A3035 RMK A01 T00581118  RH  027%=      5-min Rain = 0
KTAS 020015Z 11003KT 06/M12 A3036 RMK A01 T00571117  RH  027%=      5-min Rain = 0
KTAS 020016Z 11004KT 06/M12 A3036 RMK A01 T00561117  RH  027%=      5-min Rain = 0
KTAS 020017Z 11004KT 06/M12 A3036 RMK A01 T00561117  RH  027%=      5-min Rain = 0
KTAS 020018Z 11004KT 06/M12 A3036 RMK A01 T00561117  RH  028%=      5-min Rain = 0
KTAS 020019Z 11004KT 06/M12 A3036 RMK A01 T00551117  RH  028%=      5-min Rain = 0
KTAS 020020Z 11004KT 06/M12 A3035 RMK A01 T00551118  RH  028%=      5-min Rain = 0
KTAS 020021Z 11003KT 06/M12 A3035 RMK A01 T00551118  RH  028%=      5-min Rain = 0
KTAS 020022Z 11003KT 05/M12 A3035 RMK A01 T00541119  RH  027%=      5-min Rain = 0
KTAS 020023Z 11003KT 06/M12 A3035 RMK A01 T00551119  RH  027%=      5-min Rain = 0
KTAS 020024Z 12003KT 06/M12 A3035 RMK A01 T00551119  RH  027%=      5-min Rain = 0
KTAS 020025Z 12003KT 06/M12 A3035 RMK A01 T00551119  RH  027%=      5-min Rain = 0
KTAS 020026Z 12003KT 05/M12 A3035 RMK A01 T00541120  RH  027%=      5-min Rain = 0
KTAS 020027Z 12003KT 05/M12 A3035 RMK A01 T00531120  RH  027%=      5-min Rain = 0
KTAS 020028Z 12003KT 05/M12 A3035 RMK A01 T00531120  RH  028%=      5-min Rain = 0
KTAS 020029Z 12003KT 05/M12 A3035 RMK A01 T00521119  RH  028%=      5-min Rain = 0
KTAS 020030Z 12003KT 05/M12 A3035 RMK A01 T00521119  RH  028%=      5-min Rain = 0
KTAS 020031Z 12003KT 05/M12 A3036 RMK A01 T00521118  RH  028%=      5-min Rain = 0
KTAS 020032Z 12004KT 05/M12 A3036 RMK A01 T00511118  RH  028%=      5-min Rain = 0
KTAS 020033Z 12004KT 05/M12 A3036 RMK A01 T00511117  RH  028%=      5-min Rain = 0
KTAS 020034Z 12004KT 05/M12 A3035 RMK A01 T00501118  RH  029%=      5-min Rain = 0
KTAS 020035Z 12004KT 05/M12 A3035 RMK A01 T00491118  RH  029%=      5-min Rain = 0
KTAS 020036Z 12004KT 05/M12 A3035 RMK A01 T00491118  RH  029%=      5-min Rain = 0
KTAS 020037Z 12004KT 05/M12 A3035 RMK A01 T00481118  RH  029%=      5-min Rain = 0
KTAS 020038Z 12004KT 05/M12 A3035 RMK A01 T00471118  RH  029%=      5-min Rain = 0
KTAS 020039Z 12003KT 05/M12 A3035 RMK A01 T00461118  RH  029%=      5-min Rain = 0
KTAS 020040Z 13003KT 05/M12 A3035 RMK A01 T00461118  RH  029%=      5-min Rain = 0
KTAS 020041Z 13003KT 05/M12 A3036 RMK A01 T00451118  RH  029%=      5-min Rain = 0
KTAS 020042Z 13003KT 05/M12 A3036 RMK A01 T00451118  RH  030%=      5-min Rain = 0
KTAS 020043Z 13003KT 05/M12 A3036 RMK A01 T00451117  RH  030%=      5-min Rain = 0
KTAS 020044Z 13003KT 05/M12 A3036 RMK A01 T00451117  RH  030%=      5-min Rain = 0
KTAS 020045Z 13003KT 05/M12 A3036 RMK A01 T00451117  RH  030%=      5-min Rain = 0
KTAS 020046Z 12003KT 05/M12 A3036 RMK A01 T00451116  RH  030%=      5-min Rain = 0
KTAS 020047Z 12003KT 04/M12 A3036 RMK A01 T00441116  RH  030%=      5-min Rain = 0
KTAS 020048Z 12003KT 04/M12 A3036 RMK A01 T00441116  RH  030%=      5-min Rain = 0
KTAS 020049Z 12003KT 04/M12 A3036 RMK A01 T00431116  RH  030%=      5-min Rain = 0
KTAS 020050Z 12003KT 04/M12 A3036 RMK A01 T00431115  RH  030%=      5-min Rain = 0
KTAS 020051Z 12003KT 04/M12 A3036 RMK A01 T00431115  RH  031%=      5-min Rain = 0
KTAS 020052Z 12003KT 04/M12 A3036 RMK A01 T00421116  RH  031%=      5-min Rain = 0
KTAS 020053Z 12003KT 04/M12 A3036 RMK A01 T00421116  RH  031%=      5-min Rain = 0
KTAS 020054Z 12003KT 04/M12 A3036 RMK A01 T00421116  RH  031%=      5-min Rain = 0
KTAS 020055Z 13003KT 04/M12 A3036 RMK A01 T00421116  RH  031%=      5-min Rain = 0
KTAS 020056Z 13003KT 04/M12 A3036 RMK A01 T00411117  RH  031%=      5-min Rain = 0
KTAS 020057Z 13003KT 04/M12 A3036 RMK A01 T00411117  RH  031%=      5-min Rain = 0
KTAS 020058Z 13003KT 04/M12 A3036 RMK A01 T00411117  RH  031%=      5-min Rain = 0
KTAS 020059Z 13003KT 04/M12 A3036 RMK A01 T00411116  RH  031%=      5-min Rain = 0
KTAS 020100Z 14002KT 04/M12 A3036 RMK A01 T00401115  RH  031%=      5-min Rain = 0
KTAS 020101Z 14002KT 04/M12 A3036 RMK A01 T00391117  RH  031%=      5-min Rain = 0
KTAS 020102Z 15002KT 04/M12 A3036 RMK A01 T00371116  RH  032%=      5-min Rain = 0
KTAS 020103Z 15002KT 04/M12 A3036 RMK A01 T00371116  RH  032%=      5-min Rain = 0
KTAS 020104Z 16002KT 04/M12 A3036 RMK A01 T00371115  RH  032%=      5-min Rain = 0
KTAS 020105Z 17002KT 04/M11 A3036 RMK A01 T00371114  RH  032%=      5-min Rain = 0
KTAS 020106Z 17002KT 04/M12 A3036 RMK A01 T00361115  RH  032%=      5-min Rain = 0
KTAS 020107Z 17002KT 04/M12 A3036 RMK A01 T00351116  RH  032%=      5-min Rain = 0
KTAS 020108Z 17003KT 03/M12 A3036 RMK A01 T00331117  RH  032%=      5-min Rain = 0
KTAS 020109Z 18003KT 03/M12 A3036 RMK A01 T00321117  RH  032%=      5-min Rain = 0
KTAS 020110Z 18004KT 03/M12 A3036 RMK A01 T00321117  RH  033%=      5-min Rain = 0
KTAS 020111Z 19004KT 03/M12 A3036 RMK A01 T00301118  RH  033%=      5-min Rain = 0
KTAS 020112Z 21005KT 03/M12 A3036 RMK A01 T00281119  RH  033%=      5-min Rain = 0
KTAS 020113Z 20005KT 03/M12 A3036 RMK A01 T00261117  RH  034%=      5-min Rain = 0
KTAS 020114Z 21005KT 03/M12 A3036 RMK A01 T00251115  RH  035%=      5-min Rain = 0
KTAS 020115Z 21005KT 03/M11 A3036 RMK A01 T00251113  RH  035%=      5-min Rain = 0
KTAS 020116Z 21005KT 02/M11 A3036 RMK A01 T00231113  RH  036%=      5-min Rain = 0
KTAS 020117Z 21005KT 02/M11 A3036 RMK A01 T00211113  RH  036%=      5-min Rain = 0
KTAS 020118Z 21005KT 02/M11 A3036 RMK A01 T00201113  RH  037%=      5-min Rain = 0
KTAS 020119Z 22006KT 02/M11 A3036 RMK A01 T00201113  RH  037%=      5-min Rain = 0
KTAS 020120Z 22006KT 02/M11 A3036 RMK A01 T00211113  RH  037%=      5-min Rain = 0
KTAS 020121Z 22006KT 02/M11 A3036 RMK A01 T00211112  RH  037%=      5-min Rain = 0
KTAS 020122Z 22006KT 02/M11 A3036 RMK A01 T00221112  RH  037%=      5-min Rain = 0
KTAS 020123Z 22006KT 02/M11 A3036 RMK A01 T00221111  RH  037%=      5-min Rain = 0
KTAS 020124Z 22006KT 02/M11 A3036 RMK A01 T00211111  RH  037%=      5-min Rain = 0
KTAS 020125Z 22006KT 02/M11 A3036 RMK A01 T00201112  RH  037%=      5-min Rain = 0
KTAS 020126Z 23007KT 02/M11 A3036 RMK A01 T00181113  RH  037%=      5-min Rain = 0
KTAS 020127Z 23007KT 02/M11 A3036 RMK A01 T00161114  RH  037%=      5-min Rain = 0
KTAS 020128Z 22007KT 01/M11 A3036 RMK A01 T00141114  RH  038%=      5-min Rain = 0
KTAS 020129Z 22007KT 01/M11 A3036 RMK A01 T00141114  RH  038%=      5-min Rain = 0
KTAS 020130Z 22007KT 01/M11 A3036 RMK A01 T00131113  RH  038%=      5-min Rain = 0
KTAS 020131Z 22007KT 01/M11 A3036 RMK A01 T00131112  RH  039%=      5-min Rain = 0
KTAS 020132Z 22007KT 01/M11 A3036 RMK A01 T00131112  RH  039%=      5-min Rain = 0
KTAS 020133Z 22007KT 01/M11 A3036 RMK A01 T00131111  RH  039%=      5-min Rain = 0
KTAS 020134Z 22007KT 01/M11 A3036 RMK A01 T00131109  RH  040%=      5-min Rain = 0
KTAS 020135Z 22007KT 01/M11 A3036 RMK A01 T00131108  RH  040%=      5-min Rain = 0
KTAS 020136Z 22007KT 01/M11 A3036 RMK A01 T00141106  RH  040%=      5-min Rain = 0
KTAS 020137Z 22007KT 02/M11 A3036 RMK A01 T00151105  RH  041%=      5-min Rain = 0
KTAS 020138Z 22007KT 02/M10 A3036 RMK A01 T00151104  RH  041%=      5-min Rain = 0
KTAS 020139Z 22007KT 01/M10 A3036 RMK A01 T00141104  RH  041%=      5-min Rain = 0
KTAS 020140Z 22007KT 02/M10 A3036 RMK A01 T00151102  RH  041%=      5-min Rain = 0
KTAS 020141Z 22007KT 02/M10 A3036 RMK A01 T00151102  RH  042%=      5-min Rain = 0
KTAS 020142Z 22007KT 02/M10 A3036 RMK A01 T00151101  RH  042%=      5-min Rain = 0
KTAS 020143Z 23007KT 02/M10 A3036 RMK A01 T00151101  RH  042%=      5-min Rain = 0
KTAS 020144Z 23007KT 02/M10 A3036 RMK A01 T00151100  RH  042%=      5-min Rain = 0
KTAS 020145Z 23007KT 02/M10 A3036 RMK A01 T00151101  RH  042%=      5-min Rain = 0
KTAS 020146Z 23007KT 02/M10 A3036 RMK A01 T00151101  RH  042%=      5-min Rain = 0
KTAS 020147Z 23007KT 01/M10 A3036 RMK A01 T00141100  RH  042%=      5-min Rain = 0
KTAS 020148Z 23007KT 01/M10 A3036 RMK A01 T00141100  RH  042%=      5-min Rain = 0
KTAS 020149Z 23007KT 01/M10 A3036 RMK A01 T00141100  RH  043%=      5-min Rain = 0
KTAS 020150Z 23007KT 01/M10 A3036 RMK A01 T00131100  RH  043%=      5-min Rain = 0
KTAS 020151Z 23007KT 01/M10 A3036 RMK A01 T00131100  RH  043%=      5-min Rain = 0
KTAS 020152Z 23006KT 01/M10 A3036 RMK A01 T00121101  RH  043%=      5-min Rain = 0
KTAS 020153Z 23006KT 01/M10 A3036 RMK A01 T00111101  RH  043%=      5-min Rain = 0
KTAS 020154Z 23006KT 01/M10 A3036 RMK A01 T00101101  RH  043%=      5-min Rain = 0
KTAS 020155Z 23006KT 01/M10 A3036 RMK A01 T00091101  RH  043%=      5-min Rain = 0
KTAS 020156Z 23006KT 01/M10 A3036 RMK A01 T00091101  RH  044%=      5-min Rain = 0
KTAS 020157Z 23006KT 01/M10 A3036 RMK A01 T00081102  RH  044%=      5-min Rain = 0
KTAS 020158Z 23006KT 01/M10 A3036 RMK A01 T00071102  RH  044%=      5-min Rain = 0
KTAS 020159Z 23006KT 01/M10 A3036 RMK A01 T00061102  RH  044%=      5-min Rain = 0
KTAS 020200Z 23006KT 01/M10 A3037 RMK A01 T00051102  RH  044%=      5-min Rain = 0
KTAS 020201Z 24006KT 00/M10 A3037 RMK A01 T00041103  RH  045%=      5-min Rain = 0
KTAS 020202Z 24006KT 00/M10 A3037 RMK A01 T00031103  RH  045%=      5-min Rain = 0
KTAS 020203Z 24007KT 00/M10 A3037 RMK A01 T00021104  RH  045%=      5-min Rain = 0
KTAS 020204Z 24007KT 00/10 A3037 RMK A01 T00000-104  RH  045%=      5-min Rain = 0
KTAS 020205Z 24007KT M00/M10 A3036 RMK A01 T10011104  RH  046%=      5-min Rain = 0
KTAS 020206Z 24007KT M00/M10 A3037 RMK A01 T10011104  RH  046%=      5-min Rain = 0
KTAS 020207Z 24007KT M00/M10 A3037 RMK A01 T10011103  RH  046%=      5-min Rain = 0
KTAS 020208Z 24007KT M00/M10 A3037 RMK A01 T10011102  RH  046%=      5-min Rain = 0
KTAS 020209Z 24007KT M00/M10 A3037 RMK A01 T10011102  RH  046%=      5-min Rain = 0
KTAS 020210Z 24007KT M00/M10 A3037 RMK A01 T10011101  RH  047%=      5-min Rain = 0
KTAS 020211Z 24007KT 00/M10 A3037 RMK A01 T00011100  RH  047%=      5-min Rain = 0
KTAS 020212Z 24006KT 00/M10 A3037 RMK A01 T00021100  RH  046%=      5-min Rain = 0
KTAS 020213Z 24006KT 00/M10 A3037 RMK A01 T00041099  RH  046%=      5-min Rain = 0
KTAS 020214Z 24005KT 01/M10 A3037 RMK A01 T00051099  RH  045%=      5-min Rain = 0
KTAS 020215Z 24005KT 01/M10 A3037 RMK A01 T00061099  RH  045%=      5-min Rain = 0
KTAS 020216Z 25005KT 01/M10 A3037 RMK A01 T00071099  RH  045%=      5-min Rain = 0
KTAS 020217Z 25004KT 01/M10 A3037 RMK A01 T00061100  RH  045%=      5-min Rain = 0
KTAS 020218Z 25004KT 01/M10 A3037 RMK A01 T00061100  RH  045%=      5-min Rain = 0
KTAS 020219Z 25004KT 01/M10 A3037 RMK A01 T00061100  RH  045%=      5-min Rain = 0
KTAS 020220Z 24004KT 01/M10 A3036 RMK A01 T00051100  RH  045%=      5-min Rain = 0
KTAS 020221Z 24005KT 01/M10 A3036 RMK A01 T00051100  RH  045%=      5-min Rain = 0
KTAS 020222Z 24005KT 00/M10 A3036 RMK A01 T00041100  RH  046%=      5-min Rain = 0
KTAS 020223Z 24005KT 00/M10 A3037 RMK A01 T00031100  RH  046%=      5-min Rain = 0
KTAS 020224Z 25005KT 00/M10 A3037 RMK A01 T00021100  RH  046%=      5-min Rain = 0
KTAS 020225Z 24005KT 00/M10 A3037 RMK A01 T00021101  RH  046%=      5-min Rain = 0
KTAS 020226Z 24006KT 00/M10 A3036 RMK A01 T00011101  RH  046%=      5-min Rain = 0
KTAS 020227Z 24006KT 00/M10 A3036 RMK A01 T00011101  RH  046%=      5-min Rain = 0
KTAS 020228Z 24006KT 00/10 A3036 RMK A01 T00-00-101  RH  047%=      5-min Rain = 0
KTAS 020229Z 24006KT M00/M10 A3036 RMK A01 T10011101  RH  047%=      5-min Rain = 0
KTAS 020230Z 24006KT 00/10 A3036 RMK A01 T00-00-100  RH  047%=      5-min Rain = 0
KTAS 020231Z 24006KT 00/M10 A3037 RMK A01 T00011098  RH  047%=      5-min Rain = 0
KTAS 020232Z 24006KT 00/M10 A3037 RMK A01 T00031098  RH  047%=      5-min Rain = 0
KTAS 020233Z 24006KT 00/M10 A3037 RMK A01 T00041098  RH  046%=      5-min Rain = 0
KTAS 020234Z 24005KT 00/M10 A3037 RMK A01 T00041098  RH  046%=      5-min Rain = 0
KTAS 020235Z 24005KT 01/M10 A3037 RMK A01 T00051098  RH  046%=      5-min Rain = 0
KTAS 020236Z 24005KT 01/M10 A3037 RMK A01 T00051098  RH  046%=      5-min Rain = 0
KTAS 020237Z 24005KT 01/M10 A3037 RMK A01 T00051098  RH  046%=      5-min Rain = 0
KTAS 020238Z 24005KT 00/M10 A3037 RMK A01 T00041099  RH  046%=      5-min Rain = 0
KTAS 020239Z 24005KT 00/M10 A3037 RMK A01 T00041098  RH  046%=      5-min Rain = 0
KTAS 020240Z 24005KT 01/M10 A3037 RMK A01 T00051098  RH  046%=      5-min Rain = 0
KTAS 020241Z 24005KT 01/M10 A3036 RMK A01 T00061097  RH  046%=      5-min Rain = 0
KTAS 020242Z 23005KT 01/M10 A3037 RMK A01 T00071097  RH  046%=      5-min Rain = 0
KTAS 020243Z 23005KT 01/M10 A3037 RMK A01 T00061098  RH  046%=      5-min Rain = 0
KTAS 020244Z 24005KT 01/M10 A3037 RMK A01 T00061098  RH  046%=      5-min Rain = 0
KTAS 020245Z 23005KT 01/M10 A3037 RMK A01 T00051099  RH  046%=      5-min Rain = 0
KTAS 020246Z 24005KT 01/M10 A3037 RMK A01 T00051099  RH  046%=      5-min Rain = 0
KTAS 020247Z 24005KT 00/M10 A3037 RMK A01 T00041099  RH  046%=      5-min Rain = 0
KTAS 020248Z 24005KT 00/M10 A3037 RMK A01 T00041099  RH  046%=      5-min Rain = 0
KTAS 020249Z 23005KT 00/M10 A3037 RMK A01 T00031099  RH  046%=      5-min Rain = 0
KTAS 020250Z 23005KT 00/M10 A3037 RMK A01 T00031099  RH  046%=      5-min Rain = 0
KTAS 020251Z 24005KT 00/M10 A3037 RMK A01 T00031099  RH  046%=      5-min Rain = 0
KTAS 020252Z 24005KT 00/M10 A3037 RMK A01 T00031098  RH  047%=      5-min Rain = 0
KTAS 020253Z 24005KT 00/M10 A3036 RMK A01 T00031099  RH  047%=      5-min Rain = 0
KTAS 020254Z 24005KT 00/M10 A3036 RMK A01 T00021099  RH  047%=      5-min Rain = 0
KTAS 020255Z 24005KT 00/M10 A3036 RMK A01 T00021099  RH  047%=      5-min Rain = 0
KTAS 020256Z 24006KT 00/M10 A3036 RMK A01 T00021099  RH  047%=      5-min Rain = 0
KTAS 020257Z 24006KT 00/M10 A3036 RMK A01 T00021099  RH  047%=      5-min Rain = 0
KTAS 020258Z 25006KT 00/M10 A3036 RMK A01 T00011099  RH  047%=      5-min Rain = 0
KTAS 020259Z 25006KT 00/M10 A3036 RMK A01 T00011099  RH  047%=      5-min Rain = 0
KTAS 020300Z 25006KT 00/M10 A3036 RMK A01 T00011099  RH  047%=      5-min Rain = 0
KTAS 020301Z 25006KT 00/10 A3036 RMK A01 T00000-100  RH  047%=      5-min Rain = 0
KTAS 020302Z 25006KT M00/M10 A3036 RMK A01 T10011100  RH  047%=      5-min Rain = 0
KTAS 020303Z 25006KT M00/M10 A3036 RMK A01 T10021101  RH  047%=      5-min Rain = 0
KTAS 020304Z 25005KT M00/M10 A3036 RMK A01 T10031101  RH  048%=      5-min Rain = 0
KTAS 020305Z 25005KT M00/M10 A3036 RMK A01 T10041101  RH  048%=      5-min Rain = 0
KTAS 020306Z 25005KT M01/M10 A3036 RMK A01 T10051101  RH  048%=      5-min Rain = 0
KTAS 020307Z 25005KT M01/M10 A3036 RMK A01 T10061100  RH  049%=      5-min Rain = 0
KTAS 020308Z 25005KT M01/M10 A3036 RMK A01 T10061099  RH  050%=      5-min Rain = 0
KTAS 020309Z 25005KT M01/M10 A3036 RMK A01 T10061098  RH  050%=      5-min Rain = 0
KTAS 020310Z 25005KT M01/M10 A3036 RMK A01 T10061097  RH  050%=      5-min Rain = 0
KTAS 020311Z 25005KT M01/M10 A3036 RMK A01 T10061096  RH  051%=      5-min Rain = 0
KTAS 020312Z 25005KT M01/M10 A3036 RMK A01 T10061096  RH  051%=      5-min Rain = 0
KTAS 020313Z 25005KT M01/M10 A3036 RMK A01 T10061095  RH  051%=      5-min Rain = 0
KTAS 020314Z 25005KT M01/M10 A3036 RMK A01 T10061095  RH  051%=      5-min Rain = 0
KTAS 020315Z 25004KT M01/M10 A3036 RMK A01 T10061095  RH  051%=      5-min Rain = 0
KTAS 020316Z 25004KT M01/M10 A3036 RMK A01 T10071095  RH  051%=      5-min Rain = 0
KTAS 020317Z 25004KT M01/M10 A3036 RMK A01 T10071095  RH  051%=      5-min Rain = 0
KTAS 020318Z 25003KT M01/M10 A3036 RMK A01 T10071095  RH  051%=      5-min Rain = 0
KTAS 020319Z 25003KT M01/M10 A3036 RMK A01 T10071095  RH  051%=      5-min Rain = 0
KTAS 020320Z 25004KT M01/M09 A3036 RMK A01 T10061094  RH  051%=      5-min Rain = 0
KTAS 020321Z 25004KT M01/M09 A3036 RMK A01 T10061094  RH  051%=      5-min Rain = 0
KTAS 020322Z 25004KT M01/M09 A3036 RMK A01 T10061094  RH  051%=      5-min Rain = 0
KTAS 020323Z 25004KT M01/M09 A3036 RMK A01 T10051094  RH  051%=      5-min Rain = 0
KTAS 020324Z 25004KT M01/M09 A3036 RMK A01 T10051093  RH  051%=      5-min Rain = 0
KTAS 020325Z 25004KT M00/M09 A3036 RMK A01 T10041093  RH  051%=      5-min Rain = 0
KTAS 020326Z 25004KT M00/M09 A3036 RMK A01 T10041092  RH  051%=      5-min Rain = 0
KTAS 020327Z 25004KT M00/M09 A3036 RMK A01 T10031092  RH  051%=      5-min Rain = 0
KTAS 020328Z 25005KT M00/M09 A3036 RMK A01 T10021092  RH  051%=      5-min Rain = 0
KTAS 020329Z 25004KT M00/M09 A3036 RMK A01 T10021091  RH  051%=      5-min Rain = 0
KTAS 020330Z 25004KT M00/M09 A3036 RMK A01 T10021092  RH  051%=      5-min Rain = 0
KTAS 020331Z 25004KT M00/M09 A3036 RMK A01 T10021092  RH  051%=      5-min Rain = 0
KTAS 020332Z 25004KT M00/M09 A3036 RMK A01 T10021092  RH  051%=      5-min Rain = 0
KTAS 020333Z 25004KT M00/M09 A3036 RMK A01 T10021092  RH  051%=      5-min Rain = 0
KTAS 020334Z 25004KT M00/M09 A3036 RMK A01 T10021092  RH  051%=      5-min Rain = 0
KTAS 020335Z 25004KT M00/M09 A3036 RMK A01 T10021092  RH  051%=      5-min Rain = 0
KTAS 020336Z 25004KT M00/M09 A3036 RMK A01 T10031092  RH  051%=      5-min Rain = 0
KTAS 020337Z 25004KT M00/M09 A3036 RMK A01 T10031092  RH  051%=      5-min Rain = 0
KTAS 020338Z 25004KT M00/M09 A3036 RMK A01 T10031093  RH  051%=      5-min Rain = 0
KTAS 020339Z 25005KT M00/M09 A3036 RMK A01 T10041092  RH  051%=      5-min Rain = 0
KTAS 020340Z 25005KT M00/M09 A3036 RMK A01 T10041092  RH  051%=      5-min Rain = 0
KTAS 020341Z 25005KT M00/M09 A3036 RMK A01 T10041092  RH  051%=      5-min Rain = 0
KTAS 020342Z 26005KT M00/M09 A3036 RMK A01 T10041092  RH  051%=      5-min Rain = 0
KTAS 020343Z 26004KT M00/M09 A3036 RMK A01 T10041092  RH  051%=      5-min Rain = 0
KTAS 020344Z 26005KT M00/M09 A3036 RMK A01 T10031091  RH  051%=      5-min Rain = 0
KTAS 020345Z 26006KT M00/M09 A3036 RMK A01 T10031092  RH  051%=      5-min Rain = 0
KTAS 020346Z 26006KT M00/M09 A3036 RMK A01 T10041093  RH  051%=      5-min Rain = 0
KTAS 020347Z 26005KT M01/M10 A3036 RMK A01 T10051095  RH  051%=      5-min Rain = 0
KTAS 020348Z 27005KT M01/M10 A3036 RMK A01 T10081097  RH  051%=      5-min Rain = 0
KTAS 020349Z 27005KT M01/M10 A3036 RMK A01 T10101097  RH  052%=      5-min Rain = 0
KTAS 020350Z 27005KT M01/M09 A3036 RMK A01 T10101093  RH  053%=      5-min Rain = 0
KTAS 020351Z 27005KT M01/M09 A3036 RMK A01 T10101092  RH  054%=      5-min Rain = 0
KTAS 020352Z 28005KT M01/M09 A3036 RMK A01 T10101092  RH  054%=      5-min Rain = 0
KTAS 020353Z 28005KT M01/M09 A3036 RMK A01 T10111092  RH  054%=      5-min Rain = 0
KTAS 020354Z 28005KT M01/M09 A3036 RMK A01 T10121093  RH  054%=      5-min Rain = 0
KTAS 020355Z 28005KT M01/M09 A3036 RMK A01 T10141094  RH  054%=      5-min Rain = 0
KTAS 020356Z 27005KT M01/M09 A3036 RMK A01 T10141094  RH  055%=      5-min Rain = 0
KTAS 020357Z 27005KT M02/M09 A3036 RMK A01 T10151093  RH  055%=      5-min Rain = 0
KTAS 020358Z 27005KT M02/M09 A3036 RMK A01 T10161093  RH  055%=      5-min Rain = 0
KTAS 020359Z 27005KT M02/M09 A3036 RMK A01 T10171094  RH  056%=      5-min Rain = 0
KTAS 020400Z 27005KT M02/M09 A3036 RMK A01 T10181094  RH  056%=      5-min Rain = 0
KTAS 020401Z 28005KT M02/M09 A3036 RMK A01 T10181092  RH  057%=      5-min Rain = 0
KTAS 020402Z 28005KT M02/M09 A3036 RMK A01 T10181091  RH  057%=      5-min Rain = 0
KTAS 020403Z 28005KT M02/M09 A3036 RMK A01 T10191091  RH  058%=      5-min Rain = 0
KTAS 020404Z 28006KT M02/M09 A3036 RMK A01 T10191090  RH  058%=      5-min Rain = 0
KTAS 020405Z 28006KT M02/M09 A3036 RMK A01 T10191090  RH  058%=      5-min Rain = 0
KTAS 020406Z 28006KT M02/M09 A3036 RMK A01 T10191089  RH  059%=      5-min Rain = 0
KTAS 020407Z 28006KT M02/M09 A3036 RMK A01 T10181088  RH  059%=      5-min Rain = 0
KTAS 020408Z 28006KT M02/M09 A3036 RMK A01 T10181088  RH  059%=      5-min Rain = 0
KTAS 020409Z 28006KT M02/M09 A3036 RMK A01 T10181088  RH  059%=      5-min Rain = 0
KTAS 020410Z 28006KT M02/M09 A3036 RMK A01 T10191089  RH  058%=      5-min Rain = 0
KTAS 020411Z 28006KT M02/M09 A3036 RMK A01 T10201091  RH  058%=      5-min Rain = 0
KTAS 020412Z 28006KT M02/M09 A3036 RMK A01 T10211091  RH  059%=      5-min Rain = 0
KTAS 020413Z 28006KT M02/M09 A3036 RMK A01 T10211091  RH  059%=      5-min Rain = 0
KTAS 020414Z 28006KT M02/M09 A3036 RMK A01 T10221092  RH  059%=      5-min Rain = 0
KTAS 020415Z 28006KT M02/M09 A3036 RMK A01 T10231092  RH  059%=      5-min Rain = 0
KTAS 020416Z 27005KT M02/M09 A3036 RMK A01 T10231092  RH  059%=      5-min Rain = 0
KTAS 020417Z 27005KT M02/M09 A3036 RMK A01 T10231091  RH  060%=      5-min Rain = 0
KTAS 020418Z 27005KT M02/M09 A3036 RMK A01 T10241091  RH  060%=      5-min Rain = 0
KTAS 020419Z 27006KT M02/M09 A3036 RMK A01 T10241090  RH  060%=      5-min Rain = 0
KTAS 020420Z 28006KT M02/M09 A3036 RMK A01 T10241090  RH  060%=      5-min Rain = 0
KTAS 020421Z 27006KT M03/M09 A3036 RMK A01 T10251091  RH  060%=      5-min Rain = 0
KTAS 020422Z 28006KT M03/M09 A3036 RMK A01 T10251091  RH  060%=      5-min Rain = 0
KTAS 020423Z 28006KT M03/M09 A3036 RMK A01 T10251092  RH  060%=      5-min Rain = 0
KTAS 020424Z 28006KT M03/M09 A3036 RMK A01 T10261092  RH  060%=      5-min Rain = 0
KTAS 020425Z 27006KT M03/M09 A3036 RMK A01 T10261092  RH  060%=      5-min Rain = 0
KTAS 020426Z 28006KT M03/M09 A3036 RMK A01 T10261092  RH  061%=      5-min Rain = 0
KTAS 020427Z 28006KT M03/M09 A3036 RMK A01 T10271092  RH  061%=      5-min Rain = 0
KTAS 020428Z 28006KT M03/M09 A3036 RMK A01 T10271091  RH  061%=      5-min Rain = 0
KTAS 020429Z 27006KT M03/M09 A3036 RMK A01 T10271091  RH  061%=      5-min Rain = 0
KTAS 020430Z 27006KT M03/M09 A3036 RMK A01 T10261090  RH  061%=      5-min Rain = 0
KTAS 020431Z 27005KT M03/M09 A3036 RMK A01 T10261089  RH  062%=      5-min Rain = 0
KTAS 020432Z 27005KT M03/M09 A3036 RMK A01 T10261089  RH  062%=      5-min Rain = 0
KTAS 020433Z 27006KT M03/M09 A3036 RMK A01 T10261089  RH  062%=      5-min Rain = 0
KTAS 020434Z 27006KT M03/M09 A3036 RMK A01 T10271089  RH  062%=      5-min Rain = 0
KTAS 020435Z 27006KT M03/M09 A3036 RMK A01 T10271089  RH  062%=      5-min Rain = 0
KTAS 020436Z 27005KT M03/M09 A3036 RMK A01 T10271089  RH  062%=      5-min Rain = 0
KTAS 020437Z 27006KT M03/M09 A3036 RMK A01 T10271089  RH  063%=      5-min Rain = 0
KTAS 020438Z 27006KT M03/M09 A3036 RMK A01 T10271088  RH  063%=      5-min Rain = 0
KTAS 020439Z 27005KT M03/M09 A3036 RMK A01 T10271087  RH  063%=      5-min Rain = 0
KTAS 020440Z 27005KT M03/M09 A3036 RMK A01 T10261087  RH  063%=      5-min Rain = 0
KTAS 020441Z 27006KT M03/M09 A3036 RMK A01 T10261086  RH  063%=      5-min Rain = 0
KTAS 020442Z 27006KT M03/M09 A3036 RMK A01 T10261087  RH  063%=      5-min Rain = 0
KTAS 020443Z 27007KT M03/M09 A3036 RMK A01 T10271087  RH  063%=      5-min Rain = 0
KTAS 020444Z 27007KT M03/M09 A3036 RMK A01 T10271086  RH  064%=      5-min Rain = 0
KTAS 020445Z 26007KT M03/M09 A3036 RMK A01 T10281086  RH  064%=      5-min Rain = 0
KTAS 020446Z 26007KT M03/M09 A3036 RMK A01 T10281086  RH  065%=      5-min Rain = 0
KTAS 020447Z 26007KT M03/M08 A3036 RMK A01 T10291084  RH  065%=      5-min Rain = 0
KTAS 020448Z 26008KT M03/M08 A3036 RMK A01 T10271082  RH  066%=      5-min Rain = 0
KTAS 020449Z 26008KT M03/M08 A3036 RMK A01 T10261079  RH  067%=      5-min Rain = 0
KTAS 020450Z 26008KT M02/M08 A3037 RMK A01 T10241076  RH  067%=      5-min Rain = 0
KTAS 020451Z 26008KT M02/M07 A3037 RMK A01 T10211073  RH  068%=      5-min Rain = 0
KTAS 020452Z 26007KT M02/M07 A3037 RMK A01 T10191071  RH  067%=      5-min Rain = 0
KTAS 020453Z 26007KT M02/M07 A3037 RMK A01 T10161069  RH  067%=      5-min Rain = 0
KTAS 020454Z 26008KT M01/M07 A3037 RMK A01 T10141068  RH  067%=      5-min Rain = 0
KTAS 020455Z 26007KT M01/M07 A3036 RMK A01 T10121067  RH  066%=      5-min Rain = 0
KTAS 020456Z 26007KT M01/M07 A3036 RMK A01 T10111067  RH  066%=      5-min Rain = 0
KTAS 020457Z 26007KT M01/M07 A3036 RMK A01 T10101067  RH  065%=      5-min Rain = 0
KTAS 020458Z 26007KT M01/M07 A3036 RMK A01 T10101068  RH  065%=      5-min Rain = 0
KTAS 020459Z 26007KT M01/M07 A3036 RMK A01 T10101068  RH  064%=      5-min Rain = 0
KTAS 020500Z 27007KT M01/M07 A3036 RMK A01 T10101069  RH  064%=      5-min Rain = 0
KTAS 020501Z 27007KT M01/M07 A3036 RMK A01 T10111070  RH  064%=      5-min Rain = 0
KTAS 020502Z 27007KT M01/M07 A3036 RMK A01 T10111070  RH  064%=      5-min Rain = 0
KTAS 020503Z 27007KT M01/M07 A3036 RMK A01 T10111070  RH  064%=      5-min Rain = 0
KTAS 020504Z 27007KT M01/M07 A3036 RMK A01 T10121070  RH  064%=      5-min Rain = 0
KTAS 020505Z 27007KT M01/M07 A3036 RMK A01 T10121071  RH  064%=      5-min Rain = 0
KTAS 020506Z 27007KT M01/M07 A3036 RMK A01 T10131071  RH  064%=      5-min Rain = 0
KTAS 020507Z 27007KT M01/M07 A3036 RMK A01 T10131071  RH  065%=      5-min Rain = 0
KTAS 020508Z 27007KT M01/M07 A3036 RMK A01 T10131071  RH  065%=      5-min Rain = 0
KTAS 020509Z 27007KT M01/M07 A3036 RMK A01 T10131071  RH  065%=      5-min Rain = 0
KTAS 020510Z 27007KT M01/M07 A3036 RMK A01 T10131071  RH  065%=      5-min Rain = 0
KTAS 020511Z 27006KT M01/M07 A3036 RMK A01 T10141071  RH  065%=      5-min Rain = 0
KTAS 020512Z 27006KT M01/M07 A3036 RMK A01 T10141072  RH  065%=      5-min Rain = 0
KTAS 020513Z 27006KT M02/M07 A3036 RMK A01 T10151073  RH  065%=      5-min Rain = 0
KTAS 020514Z 27006KT M02/M07 A3036 RMK A01 T10171074  RH  065%=      5-min Rain = 0
KTAS 020515Z 27006KT M02/M07 A3036 RMK A01 T10181074  RH  065%=      5-min Rain = 0
KTAS 020516Z 27006KT M02/M08 A3036 RMK A01 T10191075  RH  066%=      5-min Rain = 0
KTAS 020517Z 27006KT M02/M08 A3036 RMK A01 T10201075  RH  066%=      5-min Rain = 0
KTAS 020518Z 27006KT M02/M08 A3036 RMK A01 T10201075  RH  066%=      5-min Rain = 0
KTAS 020519Z 27006KT M02/M08 A3036 RMK A01 T10211075  RH  067%=      5-min Rain = 0
KTAS 020520Z 27006KT M02/M08 A3036 RMK A01 T10211075  RH  067%=      5-min Rain = 0
KTAS 020521Z 27006KT M02/M08 A3036 RMK A01 T10211075  RH  067%=      5-min Rain = 0
KTAS 020522Z 27006KT M02/M08 A3036 RMK A01 T10221075  RH  067%=      5-min Rain = 0
KTAS 020523Z 27006KT M02/M08 A3036 RMK A01 T10231075  RH  067%=      5-min Rain = 0
KTAS 020524Z 28006KT M02/M08 A3036 RMK A01 T10241076  RH  067%=      5-min Rain = 0
KTAS 020525Z 28007KT M03/M08 A3036 RMK A01 T10251076  RH  068%=      5-min Rain = 0
KTAS 020526Z 28006KT M03/M08 A3035 RMK A01 T10261077  RH  068%=      5-min Rain = 0
KTAS 020527Z 28006KT M03/M08 A3035 RMK A01 T10261077  RH  068%=      5-min Rain = 0
KTAS 020528Z 28007KT M03/M08 A3035 RMK A01 T10271077  RH  068%=      5-min Rain = 0
KTAS 020529Z 28007KT M03/M08 A3035 RMK A01 T10281077  RH  069%=      5-min Rain = 0
KTAS 020530Z 28007KT M03/M08 A3035 RMK A01 T10281077  RH  069%=      5-min Rain = 0
KTAS 020531Z 28007KT M03/M08 A3035 RMK A01 T10291077  RH  069%=      5-min Rain = 0
KTAS 020532Z 28006KT M03/M08 A3035 RMK A01 T10291077  RH  069%=      5-min Rain = 0
KTAS 020533Z 29006KT M03/M08 A3035 RMK A01 T10301077  RH  070%=      5-min Rain = 0
KTAS 020534Z 29006KT M03/M08 A3035 RMK A01 T10301077  RH  070%=      5-min Rain = 0
KTAS 020535Z 29006KT M03/M08 A3035 RMK A01 T10311077  RH  070%=      5-min Rain = 0
KTAS 020536Z 29006KT M03/M08 A3035 RMK A01 T10311077  RH  070%=      5-min Rain = 0
KTAS 020537Z 29006KT M03/M08 A3035 RMK A01 T10311077  RH  070%=      5-min Rain = 0
KTAS 020538Z 29007KT M03/M08 A3035 RMK A01 T10311078  RH  070%=      5-min Rain = 0
KTAS 020539Z 29007KT M03/M08 A3035 RMK A01 T10311078  RH  070%=      5-min Rain = 0
KTAS 020540Z 29007KT M03/M08 A3035 RMK A01 T10311078  RH  070%=      5-min Rain = 0
KTAS 020541Z 29007KT M03/M08 A3035 RMK A01 T10311077  RH  070%=      5-min Rain = 0
KTAS 020542Z 29007KT M03/M08 A3035 RMK A01 T10311078  RH  070%=      5-min Rain = 0
KTAS 020543Z 29007KT M03/M08 A3035 RMK A01 T10311078  RH  070%=      5-min Rain = 0
KTAS 020544Z 29007KT M03/M08 A3035 RMK A01 T10311078  RH  070%=      5-min Rain = 0
KTAS 020545Z 29006KT M03/M08 A3035 RMK A01 T10311077  RH  070%=      5-min Rain = 0
KTAS 020546Z 29006KT M03/M08 A3035 RMK A01 T10311077  RH  070%=      5-min Rain = 0
KTAS 020547Z 29005KT M03/M08 A3035 RMK A01 T10311077  RH  070%=      5-min Rain = 0
KTAS 020548Z 29005KT M03/M08 A3034 RMK A01 T10321079  RH  070%=      5-min Rain = 0
KTAS 020549Z 29004KT M03/M08 A3034 RMK A01 T10331081  RH  070%=      5-min Rain = 0
KTAS 020550Z 29004KT M03/M08 A3034 RMK A01 T10341082  RH  070%=      5-min Rain = 0
KTAS 020551Z 29004KT M04/M08 A3034 RMK A01 T10351081  RH  070%=      5-min Rain = 0
KTAS 020552Z 29004KT M04/M08 A3034 RMK A01 T10351081  RH  071%=      5-min Rain = 0
KTAS 020553Z 29004KT M04/M08 A3034 RMK A01 T10351081  RH  071%=      5-min Rain = 0
KTAS 020554Z 29005KT M04/M08 A3034 RMK A01 T10361081  RH  071%=      5-min Rain = 0
KTAS 020555Z 28004KT M04/M08 A3034 RMK A01 T10361080  RH  071%=      5-min Rain = 0
KTAS 020556Z 29005KT M04/M08 A3034 RMK A01 T10351080  RH  071%=      5-min Rain = 0
KTAS 020557Z 28005KT M04/M08 A3034 RMK A01 T10351080  RH  071%=      5-min Rain = 0
KTAS 020558Z 28005KT M04/M08 A3034 RMK A01 T10351079  RH  071%=      5-min Rain = 0
KTAS 020559Z 28005KT M03/M08 A3034 RMK A01 T10341080  RH  071%=      5-min Rain = 0

Page generated in 0.0659 seconds.